<?xml version="1.0" encoding="UTF-8" standalone="no" ?>
<gpx xmlns="http://www.topografix.com/GPX/1/1" xmlns:xsi="http://www.w3.org/2001/XMLSchema-instance" xsi:schemaLocation="http://www.topografix.com/GPX/1/1 http://www.topografix.com/GPX/1/1/gpx.xsd" version="1.1" creator="VisuGPX - https://www.visugpx.com">
  <metadata>
    <name>Mont de Gez Variante</name>
    <desc><![CDATA[Autour d\'Argeles Gazost (65)]]></desc>
  </metadata>
  <trk>
    <name><![CDATA[mont de gez variante]]></name>
    <trkseg>
      <trkpt lat="43.00703" lon="-0.10108">
        <ele>366.88</ele>
        <time>2013-08-20T14:15:30Z</time>
      </trkpt>
      <trkpt lat="43.00706" lon="-0.10111">
        <ele>370.24</ele>
        <time>2013-08-20T14:15:36Z</time>
      </trkpt>
      <trkpt lat="43.00708" lon="-0.10115">
        <ele>369.76</ele>
        <time>2013-08-20T14:15:45Z</time>
      </trkpt>
      <trkpt lat="43.00708" lon="-0.10115">
        <ele>365.44</ele>
        <time>2013-08-20T14:15:48Z</time>
      </trkpt>
      <trkpt lat="43.00708" lon="-0.10115">
        <ele>369.28</ele>
        <time>2013-08-20T14:15:49Z</time>
      </trkpt>
      <trkpt lat="43.00709" lon="-0.10119">
        <ele>372.17</ele>
        <time>2013-08-20T14:16:06Z</time>
      </trkpt>
      <trkpt lat="43.00709" lon="-0.1012">
        <ele>375.53</ele>
        <time>2013-08-20T14:16:07Z</time>
      </trkpt>
      <trkpt lat="43.00709" lon="-0.1012">
        <ele>378.9</ele>
        <time>2013-08-20T14:16:08Z</time>
      </trkpt>
      <trkpt lat="43.00709" lon="-0.1012">
        <ele>382.26</ele>
        <time>2013-08-20T14:16:09Z</time>
      </trkpt>
      <trkpt lat="43.00709" lon="-0.1012">
        <ele>385.63</ele>
        <time>2013-08-20T14:16:10Z</time>
      </trkpt>
      <trkpt lat="43.0071" lon="-0.1012">
        <ele>388.51</ele>
        <time>2013-08-20T14:16:11Z</time>
      </trkpt>
      <trkpt lat="43.00709" lon="-0.10121">
        <ele>393.8</ele>
        <time>2013-08-20T14:16:13Z</time>
      </trkpt>
      <trkpt lat="43.00709" lon="-0.10121">
        <ele>399.08</ele>
        <time>2013-08-20T14:16:15Z</time>
      </trkpt>
      <trkpt lat="43.00709" lon="-0.10121">
        <ele>404.37</ele>
        <time>2013-08-20T14:16:17Z</time>
      </trkpt>
      <trkpt lat="43.00709" lon="-0.10122">
        <ele>408.7</ele>
        <time>2013-08-20T14:16:19Z</time>
      </trkpt>
      <trkpt lat="43.0071" lon="-0.10122">
        <ele>412.54</ele>
        <time>2013-08-20T14:16:21Z</time>
      </trkpt>
      <trkpt lat="43.00711" lon="-0.10121">
        <ele>416.39</ele>
        <time>2013-08-20T14:16:23Z</time>
      </trkpt>
      <trkpt lat="43.00711" lon="-0.10121">
        <ele>420.23</ele>
        <time>2013-08-20T14:16:25Z</time>
      </trkpt>
      <trkpt lat="43.00706" lon="-0.10121">
        <ele>422.16</ele>
        <time>2013-08-20T14:16:27Z</time>
      </trkpt>
      <trkpt lat="43.00699" lon="-0.10121">
        <ele>427.44</ele>
        <time>2013-08-20T14:16:29Z</time>
      </trkpt>
      <trkpt lat="43.00696" lon="-0.10121">
        <ele>432.25</ele>
        <time>2013-08-20T14:16:33Z</time>
      </trkpt>
      <trkpt lat="43.00696" lon="-0.10121">
        <ele>435.13</ele>
        <time>2013-08-20T14:16:36Z</time>
      </trkpt>
      <trkpt lat="43.00696" lon="-0.10121">
        <ele>438.5</ele>
        <time>2013-08-20T14:16:38Z</time>
      </trkpt>
      <trkpt lat="43.00696" lon="-0.10121">
        <ele>441.86</ele>
        <time>2013-08-20T14:16:41Z</time>
      </trkpt>
      <trkpt lat="43.00696" lon="-0.10121">
        <ele>441.86</ele>
        <time>2013-08-20T14:16:42Z</time>
      </trkpt>
      <trkpt lat="43.00696" lon="-0.10121">
        <ele>444.75</ele>
        <time>2013-08-20T14:16:45Z</time>
      </trkpt>
      <trkpt lat="43.00697" lon="-0.10123">
        <ele>448.11</ele>
        <time>2013-08-20T14:16:50Z</time>
      </trkpt>
      <trkpt lat="43.00696" lon="-0.10123">
        <ele>448.59</ele>
        <time>2013-08-20T14:16:51Z</time>
      </trkpt>
      <trkpt lat="43.00695" lon="-0.10124">
        <ele>451.48</ele>
        <time>2013-08-20T14:16:57Z</time>
      </trkpt>
      <trkpt lat="43.00694" lon="-0.10124">
        <ele>451.96</ele>
        <time>2013-08-20T14:16:58Z</time>
      </trkpt>
      <trkpt lat="43.00693" lon="-0.10125">
        <ele>454.84</ele>
        <time>2013-08-20T14:17:05Z</time>
      </trkpt>
      <trkpt lat="43.00693" lon="-0.10125">
        <ele>454.36</ele>
        <time>2013-08-20T14:17:06Z</time>
      </trkpt>
      <trkpt lat="43.00691" lon="-0.1012">
        <ele>456.76</ele>
        <time>2013-08-20T14:17:10Z</time>
      </trkpt>
      <trkpt lat="43.00692" lon="-0.10108">
        <ele>457.72</ele>
        <time>2013-08-20T14:17:14Z</time>
      </trkpt>
      <trkpt lat="43.00711" lon="-0.10094">
        <ele>460.13</ele>
        <time>2013-08-20T14:17:21Z</time>
      </trkpt>
      <trkpt lat="43.00714" lon="-0.10079">
        <ele>460.61</ele>
        <time>2013-08-20T14:17:25Z</time>
      </trkpt>
      <trkpt lat="43.00731" lon="-0.10074">
        <ele>462.05</ele>
        <time>2013-08-20T14:17:30Z</time>
      </trkpt>
      <trkpt lat="43.00768" lon="-0.1007">
        <ele>463.49</ele>
        <time>2013-08-20T14:17:39Z</time>
      </trkpt>
      <trkpt lat="43.00781" lon="-0.10069">
        <ele>463.01</ele>
        <time>2013-08-20T14:17:42Z</time>
      </trkpt>
      <trkpt lat="43.00832" lon="-0.10064">
        <ele>463.97</ele>
        <time>2013-08-20T14:17:53Z</time>
      </trkpt>
      <trkpt lat="43.00853" lon="-0.10041">
        <ele>465.42</ele>
        <time>2013-08-20T14:17:59Z</time>
      </trkpt>
      <trkpt lat="43.00851" lon="-0.10006">
        <ele>464.93</ele>
        <time>2013-08-20T14:18:05Z</time>
      </trkpt>
      <trkpt lat="43.00846" lon="-0.09988">
        <ele>464.93</ele>
        <time>2013-08-20T14:18:08Z</time>
      </trkpt>
      <trkpt lat="43.00837" lon="-0.0997">
        <ele>463.01</ele>
        <time>2013-08-20T14:18:12Z</time>
      </trkpt>
      <trkpt lat="43.00834" lon="-0.09964">
        <ele>463.49</ele>
        <time>2013-08-20T14:18:17Z</time>
      </trkpt>
      <trkpt lat="43.00869" lon="-0.0996">
        <ele>464.93</ele>
        <time>2013-08-20T14:18:26Z</time>
      </trkpt>
      <trkpt lat="43.00905" lon="-0.09961">
        <ele>464.45</ele>
        <time>2013-08-20T14:18:38Z</time>
      </trkpt>
      <trkpt lat="43.00905" lon="-0.09963">
        <ele>464.93</ele>
        <time>2013-08-20T14:18:54Z</time>
      </trkpt>
      <trkpt lat="43.00906" lon="-0.09963">
        <ele>464.45</ele>
        <time>2013-08-20T14:19:02Z</time>
      </trkpt>
      <trkpt lat="43.00914" lon="-0.09985">
        <ele>464.93</ele>
        <time>2013-08-20T14:19:08Z</time>
      </trkpt>
      <trkpt lat="43.00914" lon="-0.09996">
        <ele>464.45</ele>
        <time>2013-08-20T14:19:10Z</time>
      </trkpt>
      <trkpt lat="43.00922" lon="-0.10013">
        <ele>465.42</ele>
        <time>2013-08-20T14:19:14Z</time>
      </trkpt>
      <trkpt lat="43.0093" lon="-0.1005">
        <ele>466.38</ele>
        <time>2013-08-20T14:19:25Z</time>
      </trkpt>
      <trkpt lat="43.00932" lon="-0.10072">
        <ele>469.74</ele>
        <time>2013-08-20T14:19:33Z</time>
      </trkpt>
      <trkpt lat="43.00931" lon="-0.10082">
        <ele>470.7</ele>
        <time>2013-08-20T14:19:37Z</time>
      </trkpt>
      <trkpt lat="43.00931" lon="-0.10084">
        <ele>471.18</ele>
        <time>2013-08-20T14:19:38Z</time>
      </trkpt>
      <trkpt lat="43.00934" lon="-0.10106">
        <ele>474.55</ele>
        <time>2013-08-20T14:19:49Z</time>
      </trkpt>
      <trkpt lat="43.00941" lon="-0.10115">
        <ele>476.47</ele>
        <time>2013-08-20T14:19:55Z</time>
      </trkpt>
      <trkpt lat="43.00969" lon="-0.10122">
        <ele>479.84</ele>
        <time>2013-08-20T14:20:11Z</time>
      </trkpt>
      <trkpt lat="43.00989" lon="-0.10118">
        <ele>479.35</ele>
        <time>2013-08-20T14:20:17Z</time>
      </trkpt>
      <trkpt lat="43.01002" lon="-0.10119">
        <ele>479.35</ele>
        <time>2013-08-20T14:20:20Z</time>
      </trkpt>
      <trkpt lat="43.01025" lon="-0.10133">
        <ele>479.35</ele>
        <time>2013-08-20T14:20:26Z</time>
      </trkpt>
      <trkpt lat="43.0106" lon="-0.10127">
        <ele>478.87</ele>
        <time>2013-08-20T14:20:36Z</time>
      </trkpt>
      <trkpt lat="43.01079" lon="-0.10125">
        <ele>478.39</ele>
        <time>2013-08-20T14:20:40Z</time>
      </trkpt>
      <trkpt lat="43.01096" lon="-0.10131">
        <ele>479.35</ele>
        <time>2013-08-20T14:20:44Z</time>
      </trkpt>
      <trkpt lat="43.01127" lon="-0.10148">
        <ele>480.32</ele>
        <time>2013-08-20T14:20:54Z</time>
      </trkpt>
      <trkpt lat="43.01151" lon="-0.10146">
        <ele>483.68</ele>
        <time>2013-08-20T14:21:05Z</time>
      </trkpt>
      <trkpt lat="43.01161" lon="-0.10147">
        <ele>485.12</ele>
        <time>2013-08-20T14:21:11Z</time>
      </trkpt>
      <trkpt lat="43.01167" lon="-0.10148">
        <ele>486.56</ele>
        <time>2013-08-20T14:21:15Z</time>
      </trkpt>
      <trkpt lat="43.01193" lon="-0.10143">
        <ele>488.49</ele>
        <time>2013-08-20T14:21:28Z</time>
      </trkpt>
      <trkpt lat="43.01204" lon="-0.10137">
        <ele>490.89</ele>
        <time>2013-08-20T14:21:35Z</time>
      </trkpt>
      <trkpt lat="43.01209" lon="-0.10138">
        <ele>491.85</ele>
        <time>2013-08-20T14:21:39Z</time>
      </trkpt>
      <trkpt lat="43.01218" lon="-0.10133">
        <ele>494.26</ele>
        <time>2013-08-20T14:21:47Z</time>
      </trkpt>
      <trkpt lat="43.01233" lon="-0.10131">
        <ele>497.62</ele>
        <time>2013-08-20T14:21:58Z</time>
      </trkpt>
      <trkpt lat="43.0124" lon="-0.10126">
        <ele>499.06</ele>
        <time>2013-08-20T14:22:03Z</time>
      </trkpt>
      <trkpt lat="43.01263" lon="-0.10116">
        <ele>500.98</ele>
        <time>2013-08-20T14:22:15Z</time>
      </trkpt>
      <trkpt lat="43.01272" lon="-0.10114">
        <ele>502.43</ele>
        <time>2013-08-20T14:22:19Z</time>
      </trkpt>
      <trkpt lat="43.01279" lon="-0.10113">
        <ele>503.87</ele>
        <time>2013-08-20T14:22:23Z</time>
      </trkpt>
      <trkpt lat="43.01303" lon="-0.10117">
        <ele>506.75</ele>
        <time>2013-08-20T14:22:35Z</time>
      </trkpt>
      <trkpt lat="43.01339" lon="-0.10127">
        <ele>507.23</ele>
        <time>2013-08-20T14:22:48Z</time>
      </trkpt>
      <trkpt lat="43.01367" lon="-0.1013">
        <ele>509.64</ele>
        <time>2013-08-20T14:22:59Z</time>
      </trkpt>
      <trkpt lat="43.01374" lon="-0.10132">
        <ele>509.16</ele>
        <time>2013-08-20T14:23:01Z</time>
      </trkpt>
      <trkpt lat="43.01388" lon="-0.10133">
        <ele>509.16</ele>
        <time>2013-08-20T14:23:04Z</time>
      </trkpt>
      <trkpt lat="43.01405" lon="-0.10126">
        <ele>507.71</ele>
        <time>2013-08-20T14:23:07Z</time>
      </trkpt>
      <trkpt lat="43.01448" lon="-0.10092">
        <ele>508.19</ele>
        <time>2013-08-20T14:23:18Z</time>
      </trkpt>
      <trkpt lat="43.01472" lon="-0.10062">
        <ele>511.08</ele>
        <time>2013-08-20T14:23:30Z</time>
      </trkpt>
      <trkpt lat="43.01497" lon="-0.10041">
        <ele>513.48</ele>
        <time>2013-08-20T14:23:42Z</time>
      </trkpt>
      <trkpt lat="43.01512" lon="-0.10025">
        <ele>515.88</ele>
        <time>2013-08-20T14:23:52Z</time>
      </trkpt>
      <trkpt lat="43.0152" lon="-0.10019">
        <ele>516.85</ele>
        <time>2013-08-20T14:23:57Z</time>
      </trkpt>
      <trkpt lat="43.01535" lon="-0.10009">
        <ele>518.29</ele>
        <time>2013-08-20T14:24:05Z</time>
      </trkpt>
      <trkpt lat="43.01553" lon="-0.09999">
        <ele>521.17</ele>
        <time>2013-08-20T14:24:17Z</time>
      </trkpt>
      <trkpt lat="43.01555" lon="-0.09998">
        <ele>521.17</ele>
        <time>2013-08-20T14:24:18Z</time>
      </trkpt>
      <trkpt lat="43.01576" lon="-0.09994">
        <ele>524.54</ele>
        <time>2013-08-20T14:24:31Z</time>
      </trkpt>
      <trkpt lat="43.01594" lon="-0.09987">
        <ele>525.5</ele>
        <time>2013-08-20T14:24:38Z</time>
      </trkpt>
      <trkpt lat="43.0161" lon="-0.09979">
        <ele>526.46</ele>
        <time>2013-08-20T14:24:45Z</time>
      </trkpt>
      <trkpt lat="43.01635" lon="-0.09974">
        <ele>528.86</ele>
        <time>2013-08-20T14:24:55Z</time>
      </trkpt>
      <trkpt lat="43.01644" lon="-0.09975">
        <ele>529.82</ele>
        <time>2013-08-20T14:24:59Z</time>
      </trkpt>
      <trkpt lat="43.01649" lon="-0.09978">
        <ele>530.3</ele>
        <time>2013-08-20T14:25:02Z</time>
      </trkpt>
      <trkpt lat="43.01662" lon="-0.09992">
        <ele>531.27</ele>
        <time>2013-08-20T14:25:11Z</time>
      </trkpt>
      <trkpt lat="43.01675" lon="-0.10021">
        <ele>531.27</ele>
        <time>2013-08-20T14:25:21Z</time>
      </trkpt>
      <trkpt lat="43.01675" lon="-0.10023">
        <ele>531.27</ele>
        <time>2013-08-20T14:25:22Z</time>
      </trkpt>
      <trkpt lat="43.0168" lon="-0.10043">
        <ele>529.82</ele>
        <time>2013-08-20T14:25:25Z</time>
      </trkpt>
      <trkpt lat="43.01682" lon="-0.10048">
        <ele>528.38</ele>
        <time>2013-08-20T14:25:26Z</time>
      </trkpt>
      <trkpt lat="43.01682" lon="-0.10051">
        <ele>528.38</ele>
        <time>2013-08-20T14:25:27Z</time>
      </trkpt>
      <trkpt lat="43.01696" lon="-0.10065">
        <ele>526.94</ele>
        <time>2013-08-20T14:25:30Z</time>
      </trkpt>
      <trkpt lat="43.01722" lon="-0.10059">
        <ele>526.46</ele>
        <time>2013-08-20T14:25:34Z</time>
      </trkpt>
      <trkpt lat="43.01761" lon="-0.1006">
        <ele>528.86</ele>
        <time>2013-08-20T14:25:43Z</time>
      </trkpt>
      <trkpt lat="43.01798" lon="-0.10067">
        <ele>529.34</ele>
        <time>2013-08-20T14:25:53Z</time>
      </trkpt>
      <trkpt lat="43.01826" lon="-0.10083">
        <ele>529.82</ele>
        <time>2013-08-20T14:26:00Z</time>
      </trkpt>
      <trkpt lat="43.01836" lon="-0.10114">
        <ele>531.27</ele>
        <time>2013-08-20T14:26:07Z</time>
      </trkpt>
      <trkpt lat="43.01856" lon="-0.10154">
        <ele>532.71</ele>
        <time>2013-08-20T14:26:17Z</time>
      </trkpt>
      <trkpt lat="43.01864" lon="-0.10176">
        <ele>532.23</ele>
        <time>2013-08-20T14:26:21Z</time>
      </trkpt>
      <trkpt lat="43.01882" lon="-0.10215">
        <ele>530.3</ele>
        <time>2013-08-20T14:26:31Z</time>
      </trkpt>
      <trkpt lat="43.01882" lon="-0.10217">
        <ele>530.3</ele>
        <time>2013-08-20T14:26:32Z</time>
      </trkpt>
      <trkpt lat="43.01891" lon="-0.10226">
        <ele>529.82</ele>
        <time>2013-08-20T14:26:34Z</time>
      </trkpt>
      <trkpt lat="43.0191" lon="-0.10246">
        <ele>529.82</ele>
        <time>2013-08-20T14:26:41Z</time>
      </trkpt>
      <trkpt lat="43.01943" lon="-0.10276">
        <ele>531.27</ele>
        <time>2013-08-20T14:26:52Z</time>
      </trkpt>
      <trkpt lat="43.01949" lon="-0.10298">
        <ele>529.82</ele>
        <time>2013-08-20T14:26:56Z</time>
      </trkpt>
      <trkpt lat="43.01953" lon="-0.10311">
        <ele>529.82</ele>
        <time>2013-08-20T14:26:58Z</time>
      </trkpt>
      <trkpt lat="43.01961" lon="-0.1033">
        <ele>529.34</ele>
        <time>2013-08-20T14:27:01Z</time>
      </trkpt>
      <trkpt lat="43.01977" lon="-0.10356">
        <ele>526.46</ele>
        <time>2013-08-20T14:27:06Z</time>
      </trkpt>
      <trkpt lat="43.01981" lon="-0.10372">
        <ele>525.5</ele>
        <time>2013-08-20T14:27:08Z</time>
      </trkpt>
      <trkpt lat="43.01985" lon="-0.10391">
        <ele>522.61</ele>
        <time>2013-08-20T14:27:11Z</time>
      </trkpt>
      <trkpt lat="43.02012" lon="-0.10446">
        <ele>519.25</ele>
        <time>2013-08-20T14:27:20Z</time>
      </trkpt>
      <trkpt lat="43.02016" lon="-0.10454">
        <ele>518.77</ele>
        <time>2013-08-20T14:27:21Z</time>
      </trkpt>
      <trkpt lat="43.0212" lon="-0.10547">
        <ele>516.37</ele>
        <time>2013-08-20T14:27:33Z</time>
      </trkpt>
      <trkpt lat="43.02139" lon="-0.10567">
        <ele>515.4</ele>
        <time>2013-08-20T14:27:36Z</time>
      </trkpt>
      <trkpt lat="43.02201" lon="-0.1062">
        <ele>514.44</ele>
        <time>2013-08-20T14:27:48Z</time>
      </trkpt>
      <trkpt lat="43.02214" lon="-0.10656">
        <ele>514.92</ele>
        <time>2013-08-20T14:27:55Z</time>
      </trkpt>
      <trkpt lat="43.02214" lon="-0.10743">
        <ele>515.88</ele>
        <time>2013-08-20T14:28:10Z</time>
      </trkpt>
      <trkpt lat="43.0221" lon="-0.10849">
        <ele>517.81</ele>
        <time>2013-08-20T14:28:26Z</time>
      </trkpt>
      <trkpt lat="43.02209" lon="-0.10855">
        <ele>518.29</ele>
        <time>2013-08-20T14:28:27Z</time>
      </trkpt>
      <trkpt lat="43.02208" lon="-0.10867">
        <ele>518.29</ele>
        <time>2013-08-20T14:28:29Z</time>
      </trkpt>
      <trkpt lat="43.02207" lon="-0.10885">
        <ele>518.77</ele>
        <time>2013-08-20T14:28:32Z</time>
      </trkpt>
      <trkpt lat="43.02197" lon="-0.1095">
        <ele>520.69</ele>
        <time>2013-08-20T14:28:46Z</time>
      </trkpt>
      <trkpt lat="43.02189" lon="-0.10987">
        <ele>523.09</ele>
        <time>2013-08-20T14:28:57Z</time>
      </trkpt>
      <trkpt lat="43.02183" lon="-0.11">
        <ele>525.02</ele>
        <time>2013-08-20T14:29:01Z</time>
      </trkpt>
      <trkpt lat="43.02182" lon="-0.11013">
        <ele>525.98</ele>
        <time>2013-08-20T14:29:05Z</time>
      </trkpt>
      <trkpt lat="43.0218" lon="-0.11047">
        <ele>529.34</ele>
        <time>2013-08-20T14:29:15Z</time>
      </trkpt>
      <trkpt lat="43.0218" lon="-0.1108">
        <ele>532.23</ele>
        <time>2013-08-20T14:29:27Z</time>
      </trkpt>
      <trkpt lat="43.02178" lon="-0.11115">
        <ele>535.59</ele>
        <time>2013-08-20T14:29:39Z</time>
      </trkpt>
      <trkpt lat="43.0218" lon="-0.11137">
        <ele>537.99</ele>
        <time>2013-08-20T14:29:49Z</time>
      </trkpt>
      <trkpt lat="43.02179" lon="-0.11141">
        <ele>537.51</ele>
        <time>2013-08-20T14:29:51Z</time>
      </trkpt>
      <trkpt lat="43.0218" lon="-0.11145">
        <ele>538.96</ele>
        <time>2013-08-20T14:29:53Z</time>
      </trkpt>
      <trkpt lat="43.02181" lon="-0.1115">
        <ele>539.92</ele>
        <time>2013-08-20T14:29:56Z</time>
      </trkpt>
      <trkpt lat="43.02175" lon="-0.11173">
        <ele>541.84</ele>
        <time>2013-08-20T14:30:08Z</time>
      </trkpt>
      <trkpt lat="43.02177" lon="-0.11183">
        <ele>543.28</ele>
        <time>2013-08-20T14:30:13Z</time>
      </trkpt>
      <trkpt lat="43.02178" lon="-0.11187">
        <ele>543.76</ele>
        <time>2013-08-20T14:30:15Z</time>
      </trkpt>
      <trkpt lat="43.02183" lon="-0.11203">
        <ele>546.17</ele>
        <time>2013-08-20T14:30:27Z</time>
      </trkpt>
      <trkpt lat="43.02186" lon="-0.11212">
        <ele>547.61</ele>
        <time>2013-08-20T14:30:36Z</time>
      </trkpt>
      <trkpt lat="43.02174" lon="-0.11238">
        <ele>550.49</ele>
        <time>2013-08-20T14:30:50Z</time>
      </trkpt>
      <trkpt lat="43.02155" lon="-0.11262">
        <ele>552.9</ele>
        <time>2013-08-20T14:31:00Z</time>
      </trkpt>
      <trkpt lat="43.02155" lon="-0.11266">
        <ele>553.38</ele>
        <time>2013-08-20T14:31:02Z</time>
      </trkpt>
      <trkpt lat="43.02151" lon="-0.11281">
        <ele>556.26</ele>
        <time>2013-08-20T14:31:11Z</time>
      </trkpt>
      <trkpt lat="43.02146" lon="-0.11287">
        <ele>557.7</ele>
        <time>2013-08-20T14:31:16Z</time>
      </trkpt>
      <trkpt lat="43.02135" lon="-0.11303">
        <ele>560.59</ele>
        <time>2013-08-20T14:31:25Z</time>
      </trkpt>
      <trkpt lat="43.02127" lon="-0.11323">
        <ele>563.95</ele>
        <time>2013-08-20T14:31:35Z</time>
      </trkpt>
      <trkpt lat="43.02115" lon="-0.11326">
        <ele>564.91</ele>
        <time>2013-08-20T14:31:39Z</time>
      </trkpt>
      <trkpt lat="43.02089" lon="-0.11337">
        <ele>567.32</ele>
        <time>2013-08-20T14:31:49Z</time>
      </trkpt>
      <trkpt lat="43.02131" lon="-0.11369">
        <ele>569.72</ele>
        <time>2013-08-20T14:31:59Z</time>
      </trkpt>
      <trkpt lat="43.02131" lon="-0.11378">
        <ele>570.68</ele>
        <time>2013-08-20T14:32:03Z</time>
      </trkpt>
      <trkpt lat="43.02131" lon="-0.11379">
        <ele>571.16</ele>
        <time>2013-08-20T14:32:05Z</time>
      </trkpt>
      <trkpt lat="43.02133" lon="-0.11384">
        <ele>572.12</ele>
        <time>2013-08-20T14:32:09Z</time>
      </trkpt>
      <trkpt lat="43.02128" lon="-0.11391">
        <ele>573.08</ele>
        <time>2013-08-20T14:32:13Z</time>
      </trkpt>
      <trkpt lat="43.02133" lon="-0.114">
        <ele>573.56</ele>
        <time>2013-08-20T14:32:18Z</time>
      </trkpt>
      <trkpt lat="43.0213" lon="-0.11403">
        <ele>575.01</ele>
        <time>2013-08-20T14:32:21Z</time>
      </trkpt>
      <trkpt lat="43.02179" lon="-0.11421">
        <ele>575.97</ele>
        <time>2013-08-20T14:32:25Z</time>
      </trkpt>
      <trkpt lat="43.02172" lon="-0.11424">
        <ele>576.93</ele>
        <time>2013-08-20T14:32:30Z</time>
      </trkpt>
      <trkpt lat="43.02151" lon="-0.11439">
        <ele>575.49</ele>
        <time>2013-08-20T14:32:37Z</time>
      </trkpt>
      <trkpt lat="43.02129" lon="-0.11446">
        <ele>576.45</ele>
        <time>2013-08-20T14:32:42Z</time>
      </trkpt>
      <trkpt lat="43.02101" lon="-0.11435">
        <ele>574.53</ele>
        <time>2013-08-20T14:32:51Z</time>
      </trkpt>
      <trkpt lat="43.02078" lon="-0.11412">
        <ele>575.49</ele>
        <time>2013-08-20T14:32:57Z</time>
      </trkpt>
      <trkpt lat="43.02047" lon="-0.11406">
        <ele>576.93</ele>
        <time>2013-08-20T14:33:07Z</time>
      </trkpt>
      <trkpt lat="43.02044" lon="-0.11407">
        <ele>577.41</ele>
        <time>2013-08-20T14:33:08Z</time>
      </trkpt>
      <trkpt lat="43.02037" lon="-0.11409">
        <ele>578.37</ele>
        <time>2013-08-20T14:33:12Z</time>
      </trkpt>
      <trkpt lat="43.02033" lon="-0.11414">
        <ele>579.33</ele>
        <time>2013-08-20T14:33:16Z</time>
      </trkpt>
      <trkpt lat="43.02023" lon="-0.11419">
        <ele>580.77</ele>
        <time>2013-08-20T14:33:19Z</time>
      </trkpt>
      <trkpt lat="43.02018" lon="-0.11422">
        <ele>580.77</ele>
        <time>2013-08-20T14:33:21Z</time>
      </trkpt>
      <trkpt lat="43.02005" lon="-0.11426">
        <ele>581.25</ele>
        <time>2013-08-20T14:33:25Z</time>
      </trkpt>
      <trkpt lat="43.01964" lon="-0.11437">
        <ele>581.25</ele>
        <time>2013-08-20T14:33:35Z</time>
      </trkpt>
      <trkpt lat="43.01935" lon="-0.1145">
        <ele>582.22</ele>
        <time>2013-08-20T14:33:44Z</time>
      </trkpt>
      <trkpt lat="43.01927" lon="-0.11454">
        <ele>582.7</ele>
        <time>2013-08-20T14:33:47Z</time>
      </trkpt>
      <trkpt lat="43.01917" lon="-0.11475">
        <ele>585.1</ele>
        <time>2013-08-20T14:33:56Z</time>
      </trkpt>
      <trkpt lat="43.01911" lon="-0.11489">
        <ele>584.14</ele>
        <time>2013-08-20T14:33:59Z</time>
      </trkpt>
      <trkpt lat="43.01893" lon="-0.11522">
        <ele>581.25</ele>
        <time>2013-08-20T14:34:04Z</time>
      </trkpt>
      <trkpt lat="43.01881" lon="-0.11534">
        <ele>580.77</ele>
        <time>2013-08-20T14:34:06Z</time>
      </trkpt>
      <trkpt lat="43.01869" lon="-0.11543">
        <ele>580.29</ele>
        <time>2013-08-20T14:34:08Z</time>
      </trkpt>
      <trkpt lat="43.0186" lon="-0.11548">
        <ele>580.77</ele>
        <time>2013-08-20T14:34:10Z</time>
      </trkpt>
      <trkpt lat="43.01846" lon="-0.11551">
        <ele>581.25</ele>
        <time>2013-08-20T14:34:12Z</time>
      </trkpt>
      <trkpt lat="43.01822" lon="-0.11564">
        <ele>580.29</ele>
        <time>2013-08-20T14:34:17Z</time>
      </trkpt>
      <trkpt lat="43.01821" lon="-0.1157">
        <ele>579.33</ele>
        <time>2013-08-20T14:34:18Z</time>
      </trkpt>
      <trkpt lat="43.01802" lon="-0.11598">
        <ele>581.25</ele>
        <time>2013-08-20T14:34:25Z</time>
      </trkpt>
      <trkpt lat="43.01802" lon="-0.11601">
        <ele>581.73</ele>
        <time>2013-08-20T14:34:26Z</time>
      </trkpt>
      <trkpt lat="43.01826" lon="-0.11651">
        <ele>582.22</ele>
        <time>2013-08-20T14:34:39Z</time>
      </trkpt>
      <trkpt lat="43.01858" lon="-0.1167">
        <ele>582.7</ele>
        <time>2013-08-20T14:34:50Z</time>
      </trkpt>
      <trkpt lat="43.01889" lon="-0.11711">
        <ele>583.66</ele>
        <time>2013-08-20T14:35:02Z</time>
      </trkpt>
      <trkpt lat="43.01898" lon="-0.11723">
        <ele>584.14</ele>
        <time>2013-08-20T14:35:05Z</time>
      </trkpt>
      <trkpt lat="43.01916" lon="-0.11766">
        <ele>584.14</ele>
        <time>2013-08-20T14:35:13Z</time>
      </trkpt>
      <trkpt lat="43.01929" lon="-0.11799">
        <ele>583.18</ele>
        <time>2013-08-20T14:35:18Z</time>
      </trkpt>
      <trkpt lat="43.01979" lon="-0.11887">
        <ele>582.22</ele>
        <time>2013-08-20T14:35:32Z</time>
      </trkpt>
      <trkpt lat="43.02007" lon="-0.11931">
        <ele>582.7</ele>
        <time>2013-08-20T14:35:40Z</time>
      </trkpt>
      <trkpt lat="43.02024" lon="-0.11968">
        <ele>585.58</ele>
        <time>2013-08-20T14:35:48Z</time>
      </trkpt>
      <trkpt lat="43.02045" lon="-0.12003">
        <ele>588.95</ele>
        <time>2013-08-20T14:36:00Z</time>
      </trkpt>
      <trkpt lat="43.0205" lon="-0.12008">
        <ele>589.43</ele>
        <time>2013-08-20T14:36:02Z</time>
      </trkpt>
      <trkpt lat="43.02077" lon="-0.1203">
        <ele>592.79</ele>
        <time>2013-08-20T14:36:13Z</time>
      </trkpt>
      <trkpt lat="43.02105" lon="-0.12052">
        <ele>595.67</ele>
        <time>2013-08-20T14:36:25Z</time>
      </trkpt>
      <trkpt lat="43.02134" lon="-0.12086">
        <ele>599.04</ele>
        <time>2013-08-20T14:36:40Z</time>
      </trkpt>
      <trkpt lat="43.02165" lon="-0.121">
        <ele>601.44</ele>
        <time>2013-08-20T14:36:54Z</time>
      </trkpt>
      <trkpt lat="43.02187" lon="-0.12133">
        <ele>602.4</ele>
        <time>2013-08-20T14:37:06Z</time>
      </trkpt>
      <trkpt lat="43.02187" lon="-0.12152">
        <ele>602.88</ele>
        <time>2013-08-20T14:37:10Z</time>
      </trkpt>
      <trkpt lat="43.02181" lon="-0.12165">
        <ele>602.88</ele>
        <time>2013-08-20T14:37:13Z</time>
      </trkpt>
      <trkpt lat="43.02173" lon="-0.12196">
        <ele>604.81</ele>
        <time>2013-08-20T14:37:21Z</time>
      </trkpt>
      <trkpt lat="43.02182" lon="-0.12265">
        <ele>606.73</ele>
        <time>2013-08-20T14:37:36Z</time>
      </trkpt>
      <trkpt lat="43.02198" lon="-0.12358">
        <ele>609.13</ele>
        <time>2013-08-20T14:37:56Z</time>
      </trkpt>
      <trkpt lat="43.022" lon="-0.12425">
        <ele>611.54</ele>
        <time>2013-08-20T14:38:10Z</time>
      </trkpt>
      <trkpt lat="43.02187" lon="-0.12484">
        <ele>612.98</ele>
        <time>2013-08-20T14:38:23Z</time>
      </trkpt>
      <trkpt lat="43.02179" lon="-0.12535">
        <ele>614.9</ele>
        <time>2013-08-20T14:38:34Z</time>
      </trkpt>
      <trkpt lat="43.02176" lon="-0.12599">
        <ele>617.3</ele>
        <time>2013-08-20T14:38:48Z</time>
      </trkpt>
      <trkpt lat="43.02181" lon="-0.12645">
        <ele>619.23</ele>
        <time>2013-08-20T14:38:59Z</time>
      </trkpt>
      <trkpt lat="43.02192" lon="-0.12686">
        <ele>622.11</ele>
        <time>2013-08-20T14:39:10Z</time>
      </trkpt>
      <trkpt lat="43.02183" lon="-0.12722">
        <ele>624.99</ele>
        <time>2013-08-20T14:39:21Z</time>
      </trkpt>
      <trkpt lat="43.02183" lon="-0.12746">
        <ele>626.44</ele>
        <time>2013-08-20T14:39:28Z</time>
      </trkpt>
      <trkpt lat="43.022" lon="-0.12771">
        <ele>629.8</ele>
        <time>2013-08-20T14:39:40Z</time>
      </trkpt>
      <trkpt lat="43.02233" lon="-0.1278">
        <ele>633.17</ele>
        <time>2013-08-20T14:39:54Z</time>
      </trkpt>
      <trkpt lat="43.02239" lon="-0.12783">
        <ele>633.17</ele>
        <time>2013-08-20T14:39:57Z</time>
      </trkpt>
      <trkpt lat="43.02243" lon="-0.12799">
        <ele>634.61</ele>
        <time>2013-08-20T14:40:03Z</time>
      </trkpt>
      <trkpt lat="43.02242" lon="-0.12804">
        <ele>635.57</ele>
        <time>2013-08-20T14:40:05Z</time>
      </trkpt>
      <trkpt lat="43.02238" lon="-0.12815">
        <ele>637.49</ele>
        <time>2013-08-20T14:40:11Z</time>
      </trkpt>
      <trkpt lat="43.02235" lon="-0.12822">
        <ele>638.45</ele>
        <time>2013-08-20T14:40:15Z</time>
      </trkpt>
      <trkpt lat="43.02217" lon="-0.12832">
        <ele>640.38</ele>
        <time>2013-08-20T14:40:26Z</time>
      </trkpt>
      <trkpt lat="43.02194" lon="-0.1284">
        <ele>643.74</ele>
        <time>2013-08-20T14:40:39Z</time>
      </trkpt>
      <trkpt lat="43.0217" lon="-0.12849">
        <ele>647.1</ele>
        <time>2013-08-20T14:40:52Z</time>
      </trkpt>
      <trkpt lat="43.02149" lon="-0.12864">
        <ele>649.99</ele>
        <time>2013-08-20T14:41:04Z</time>
      </trkpt>
      <trkpt lat="43.0215" lon="-0.12888">
        <ele>653.35</ele>
        <time>2013-08-20T14:41:15Z</time>
      </trkpt>
      <trkpt lat="43.02158" lon="-0.1291">
        <ele>656.72</ele>
        <time>2013-08-20T14:41:25Z</time>
      </trkpt>
      <trkpt lat="43.0217" lon="-0.12939">
        <ele>659.6</ele>
        <time>2013-08-20T14:41:37Z</time>
      </trkpt>
      <trkpt lat="43.02174" lon="-0.12986">
        <ele>662.01</ele>
        <time>2013-08-20T14:41:53Z</time>
      </trkpt>
      <trkpt lat="43.02183" lon="-0.13014">
        <ele>664.89</ele>
        <time>2013-08-20T14:42:04Z</time>
      </trkpt>
      <trkpt lat="43.02173" lon="-0.13039">
        <ele>667.77</ele>
        <time>2013-08-20T14:42:17Z</time>
      </trkpt>
      <trkpt lat="43.0215" lon="-0.13045">
        <ele>671.14</ele>
        <time>2013-08-20T14:42:29Z</time>
      </trkpt>
      <trkpt lat="43.02129" lon="-0.13048">
        <ele>673.54</ele>
        <time>2013-08-20T14:42:39Z</time>
      </trkpt>
      <trkpt lat="43.02105" lon="-0.13044">
        <ele>675.46</ele>
        <time>2013-08-20T14:42:50Z</time>
      </trkpt>
      <trkpt lat="43.02103" lon="-0.13043">
        <ele>675.94</ele>
        <time>2013-08-20T14:42:51Z</time>
      </trkpt>
      <trkpt lat="43.02095" lon="-0.13035">
        <ele>676.91</ele>
        <time>2013-08-20T14:42:56Z</time>
      </trkpt>
      <trkpt lat="43.02068" lon="-0.13025">
        <ele>680.27</ele>
        <time>2013-08-20T14:43:09Z</time>
      </trkpt>
      <trkpt lat="43.02047" lon="-0.1303">
        <ele>682.19</ele>
        <time>2013-08-20T14:43:20Z</time>
      </trkpt>
      <trkpt lat="43.02037" lon="-0.13033">
        <ele>684.12</ele>
        <time>2013-08-20T14:43:26Z</time>
      </trkpt>
      <trkpt lat="43.02035" lon="-0.13046">
        <ele>685.56</ele>
        <time>2013-08-20T14:43:32Z</time>
      </trkpt>
      <trkpt lat="43.02052" lon="-0.1309">
        <ele>688.92</ele>
        <time>2013-08-20T14:43:49Z</time>
      </trkpt>
      <trkpt lat="43.0207" lon="-0.13129">
        <ele>691.81</ele>
        <time>2013-08-20T14:44:04Z</time>
      </trkpt>
      <trkpt lat="43.02088" lon="-0.13153">
        <ele>695.17</ele>
        <time>2013-08-20T14:44:18Z</time>
      </trkpt>
      <trkpt lat="43.02108" lon="-0.13186">
        <ele>697.57</ele>
        <time>2013-08-20T14:44:32Z</time>
      </trkpt>
      <trkpt lat="43.02132" lon="-0.13232">
        <ele>699.98</ele>
        <time>2013-08-20T14:44:49Z</time>
      </trkpt>
      <trkpt lat="43.02137" lon="-0.13275">
        <ele>702.38</ele>
        <time>2013-08-20T14:45:03Z</time>
      </trkpt>
      <trkpt lat="43.02133" lon="-0.13284">
        <ele>703.34</ele>
        <time>2013-08-20T14:45:07Z</time>
      </trkpt>
      <trkpt lat="43.02119" lon="-0.13285">
        <ele>706.71</ele>
        <time>2013-08-20T14:45:19Z</time>
      </trkpt>
      <trkpt lat="43.021" lon="-0.13276">
        <ele>709.59</ele>
        <time>2013-08-20T14:45:31Z</time>
      </trkpt>
      <trkpt lat="43.0208" lon="-0.1327">
        <ele>711.99</ele>
        <time>2013-08-20T14:45:41Z</time>
      </trkpt>
      <trkpt lat="43.0205" lon="-0.13262">
        <ele>714.88</ele>
        <time>2013-08-20T14:45:55Z</time>
      </trkpt>
      <trkpt lat="43.02018" lon="-0.13254">
        <ele>718.24</ele>
        <time>2013-08-20T14:46:11Z</time>
      </trkpt>
      <trkpt lat="43.02017" lon="-0.13253">
        <ele>718.72</ele>
        <time>2013-08-20T14:46:13Z</time>
      </trkpt>
      <trkpt lat="43.02014" lon="-0.13252">
        <ele>719.68</ele>
        <time>2013-08-20T14:46:15Z</time>
      </trkpt>
      <trkpt lat="43.01994" lon="-0.1325">
        <ele>722.57</ele>
        <time>2013-08-20T14:46:26Z</time>
      </trkpt>
      <trkpt lat="43.01967" lon="-0.13242">
        <ele>724.97</ele>
        <time>2013-08-20T14:46:38Z</time>
      </trkpt>
      <trkpt lat="43.0196" lon="-0.13228">
        <ele>725.45</ele>
        <time>2013-08-20T14:46:43Z</time>
      </trkpt>
      <trkpt lat="43.01951" lon="-0.13204">
        <ele>725.93</ele>
        <time>2013-08-20T14:46:51Z</time>
      </trkpt>
      <trkpt lat="43.01941" lon="-0.13189">
        <ele>728.82</ele>
        <time>2013-08-20T14:47:00Z</time>
      </trkpt>
      <trkpt lat="43.01932" lon="-0.13183">
        <ele>730.26</ele>
        <time>2013-08-20T14:47:06Z</time>
      </trkpt>
      <trkpt lat="43.0192" lon="-0.13187">
        <ele>732.18</ele>
        <time>2013-08-20T14:47:12Z</time>
      </trkpt>
      <trkpt lat="43.01919" lon="-0.13189">
        <ele>732.66</ele>
        <time>2013-08-20T14:47:14Z</time>
      </trkpt>
      <trkpt lat="43.01915" lon="-0.13196">
        <ele>733.14</ele>
        <time>2013-08-20T14:47:19Z</time>
      </trkpt>
      <trkpt lat="43.01902" lon="-0.13221">
        <ele>735.55</ele>
        <time>2013-08-20T14:47:32Z</time>
      </trkpt>
      <trkpt lat="43.01885" lon="-0.13205">
        <ele>737.47</ele>
        <time>2013-08-20T14:47:42Z</time>
      </trkpt>
      <trkpt lat="43.01881" lon="-0.13201">
        <ele>737.47</ele>
        <time>2013-08-20T14:47:44Z</time>
      </trkpt>
      <trkpt lat="43.01873" lon="-0.13191">
        <ele>737.95</ele>
        <time>2013-08-20T14:47:48Z</time>
      </trkpt>
      <trkpt lat="43.01859" lon="-0.13155">
        <ele>736.99</ele>
        <time>2013-08-20T14:47:58Z</time>
      </trkpt>
      <trkpt lat="43.01857" lon="-0.13138">
        <ele>736.51</ele>
        <time>2013-08-20T14:48:00Z</time>
      </trkpt>
      <trkpt lat="43.01856" lon="-0.13128">
        <ele>735.07</ele>
        <time>2013-08-20T14:48:01Z</time>
      </trkpt>
      <trkpt lat="43.01847" lon="-0.13098">
        <ele>733.14</ele>
        <time>2013-08-20T14:48:04Z</time>
      </trkpt>
      <trkpt lat="43.01835" lon="-0.1308">
        <ele>732.18</ele>
        <time>2013-08-20T14:48:06Z</time>
      </trkpt>
      <trkpt lat="43.01803" lon="-0.13048">
        <ele>729.3</ele>
        <time>2013-08-20T14:48:10Z</time>
      </trkpt>
      <trkpt lat="43.0178" lon="-0.13005">
        <ele>729.78</ele>
        <time>2013-08-20T14:48:15Z</time>
      </trkpt>
      <trkpt lat="43.01773" lon="-0.12986">
        <ele>730.26</ele>
        <time>2013-08-20T14:48:19Z</time>
      </trkpt>
      <trkpt lat="43.01763" lon="-0.12963">
        <ele>731.7</ele>
        <time>2013-08-20T14:48:27Z</time>
      </trkpt>
      <trkpt lat="43.01764" lon="-0.12958">
        <ele>732.66</ele>
        <time>2013-08-20T14:48:29Z</time>
      </trkpt>
      <trkpt lat="43.01763" lon="-0.12952">
        <ele>733.14</ele>
        <time>2013-08-20T14:48:31Z</time>
      </trkpt>
      <trkpt lat="43.01751" lon="-0.1294">
        <ele>735.55</ele>
        <time>2013-08-20T14:48:39Z</time>
      </trkpt>
      <trkpt lat="43.01737" lon="-0.1291">
        <ele>737.95</ele>
        <time>2013-08-20T14:48:49Z</time>
      </trkpt>
      <trkpt lat="43.01725" lon="-0.12891">
        <ele>737.95</ele>
        <time>2013-08-20T14:48:55Z</time>
      </trkpt>
      <trkpt lat="43.01704" lon="-0.12858">
        <ele>739.39</ele>
        <time>2013-08-20T14:49:06Z</time>
      </trkpt>
      <trkpt lat="43.01695" lon="-0.12834">
        <ele>740.35</ele>
        <time>2013-08-20T14:49:13Z</time>
      </trkpt>
      <trkpt lat="43.01687" lon="-0.12818">
        <ele>741.31</ele>
        <time>2013-08-20T14:49:18Z</time>
      </trkpt>
      <trkpt lat="43.01679" lon="-0.12817">
        <ele>744.2</ele>
        <time>2013-08-20T14:49:28Z</time>
      </trkpt>
      <trkpt lat="43.01679" lon="-0.12819">
        <ele>743.72</ele>
        <time>2013-08-20T14:49:29Z</time>
      </trkpt>
      <trkpt lat="43.01682" lon="-0.12861">
        <ele>748.04</ele>
        <time>2013-08-20T14:49:44Z</time>
      </trkpt>
      <trkpt lat="43.01688" lon="-0.12898">
        <ele>751.41</ele>
        <time>2013-08-20T14:49:57Z</time>
      </trkpt>
      <trkpt lat="43.01694" lon="-0.12923">
        <ele>754.29</ele>
        <time>2013-08-20T14:50:07Z</time>
      </trkpt>
      <trkpt lat="43.01702" lon="-0.12952">
        <ele>757.18</ele>
        <time>2013-08-20T14:50:19Z</time>
      </trkpt>
      <trkpt lat="43.01703" lon="-0.12956">
        <ele>758.14</ele>
        <time>2013-08-20T14:50:21Z</time>
      </trkpt>
      <trkpt lat="43.01709" lon="-0.12986">
        <ele>761.5</ele>
        <time>2013-08-20T14:50:33Z</time>
      </trkpt>
      <trkpt lat="43.01713" lon="-0.12999">
        <ele>762.94</ele>
        <time>2013-08-20T14:50:39Z</time>
      </trkpt>
      <trkpt lat="43.01714" lon="-0.13026">
        <ele>765.83</ele>
        <time>2013-08-20T14:50:49Z</time>
      </trkpt>
      <trkpt lat="43.01717" lon="-0.13066">
        <ele>768.71</ele>
        <time>2013-08-20T14:51:03Z</time>
      </trkpt>
      <trkpt lat="43.01717" lon="-0.13109">
        <ele>771.11</ele>
        <time>2013-08-20T14:51:17Z</time>
      </trkpt>
      <trkpt lat="43.01717" lon="-0.13133">
        <ele>773.04</ele>
        <time>2013-08-20T14:51:25Z</time>
      </trkpt>
      <trkpt lat="43.01728" lon="-0.13177">
        <ele>775.44</ele>
        <time>2013-08-20T14:51:39Z</time>
      </trkpt>
      <trkpt lat="43.01747" lon="-0.13224">
        <ele>776.88</ele>
        <time>2013-08-20T14:51:52Z</time>
      </trkpt>
      <trkpt lat="43.01776" lon="-0.13284">
        <ele>779.29</ele>
        <time>2013-08-20T14:52:08Z</time>
      </trkpt>
      <trkpt lat="43.01799" lon="-0.13351">
        <ele>782.17</ele>
        <time>2013-08-20T14:52:24Z</time>
      </trkpt>
      <trkpt lat="43.01825" lon="-0.13412">
        <ele>785.05</ele>
        <time>2013-08-20T14:52:41Z</time>
      </trkpt>
      <trkpt lat="43.01851" lon="-0.13465">
        <ele>788.9</ele>
        <time>2013-08-20T14:52:58Z</time>
      </trkpt>
      <trkpt lat="43.0187" lon="-0.13498">
        <ele>791.78</ele>
        <time>2013-08-20T14:53:10Z</time>
      </trkpt>
      <trkpt lat="43.01888" lon="-0.13522">
        <ele>795.15</ele>
        <time>2013-08-20T14:53:21Z</time>
      </trkpt>
      <trkpt lat="43.01901" lon="-0.13539">
        <ele>797.55</ele>
        <time>2013-08-20T14:53:30Z</time>
      </trkpt>
      <trkpt lat="43.01908" lon="-0.13548">
        <ele>798.03</ele>
        <time>2013-08-20T14:53:35Z</time>
      </trkpt>
      <trkpt lat="43.01926" lon="-0.1358">
        <ele>801.88</ele>
        <time>2013-08-20T14:53:48Z</time>
      </trkpt>
      <trkpt lat="43.01932" lon="-0.13607">
        <ele>804.28</ele>
        <time>2013-08-20T14:53:57Z</time>
      </trkpt>
      <trkpt lat="43.01933" lon="-0.13612">
        <ele>805.24</ele>
        <time>2013-08-20T14:53:59Z</time>
      </trkpt>
      <trkpt lat="43.01934" lon="-0.13619">
        <ele>805.72</ele>
        <time>2013-08-20T14:54:02Z</time>
      </trkpt>
      <trkpt lat="43.01934" lon="-0.13627">
        <ele>806.68</ele>
        <time>2013-08-20T14:54:05Z</time>
      </trkpt>
      <trkpt lat="43.01931" lon="-0.13645">
        <ele>807.16</ele>
        <time>2013-08-20T14:54:11Z</time>
      </trkpt>
      <trkpt lat="43.01931" lon="-0.13646">
        <ele>808.13</ele>
        <time>2013-08-20T14:54:12Z</time>
      </trkpt>
      <trkpt lat="43.0192" lon="-0.13671">
        <ele>809.57</ele>
        <time>2013-08-20T14:54:20Z</time>
      </trkpt>
      <trkpt lat="43.01888" lon="-0.13702">
        <ele>810.53</ele>
        <time>2013-08-20T14:54:33Z</time>
      </trkpt>
      <trkpt lat="43.01854" lon="-0.13712">
        <ele>811.97</ele>
        <time>2013-08-20T14:54:44Z</time>
      </trkpt>
      <trkpt lat="43.01822" lon="-0.1371">
        <ele>815.34</ele>
        <time>2013-08-20T14:54:55Z</time>
      </trkpt>
      <trkpt lat="43.01798" lon="-0.13699">
        <ele>818.22</ele>
        <time>2013-08-20T14:55:05Z</time>
      </trkpt>
      <trkpt lat="43.01792" lon="-0.13693">
        <ele>818.7</ele>
        <time>2013-08-20T14:55:08Z</time>
      </trkpt>
      <trkpt lat="43.01785" lon="-0.13685">
        <ele>819.66</ele>
        <time>2013-08-20T14:55:13Z</time>
      </trkpt>
      <trkpt lat="43.01777" lon="-0.1368">
        <ele>820.62</ele>
        <time>2013-08-20T14:55:17Z</time>
      </trkpt>
      <trkpt lat="43.01765" lon="-0.13667">
        <ele>822.55</ele>
        <time>2013-08-20T14:55:24Z</time>
      </trkpt>
      <trkpt lat="43.01757" lon="-0.13661">
        <ele>823.51</ele>
        <time>2013-08-20T14:55:28Z</time>
      </trkpt>
      <trkpt lat="43.0174" lon="-0.13655">
        <ele>825.91</ele>
        <time>2013-08-20T14:55:37Z</time>
      </trkpt>
      <trkpt lat="43.0172" lon="-0.1366">
        <ele>828.79</ele>
        <time>2013-08-20T14:55:46Z</time>
      </trkpt>
      <trkpt lat="43.01716" lon="-0.13662">
        <ele>829.27</ele>
        <time>2013-08-20T14:55:48Z</time>
      </trkpt>
      <trkpt lat="43.01704" lon="-0.13678">
        <ele>831.68</ele>
        <time>2013-08-20T14:55:56Z</time>
      </trkpt>
      <trkpt lat="43.01688" lon="-0.13724">
        <ele>835.04</ele>
        <time>2013-08-20T14:56:10Z</time>
      </trkpt>
      <trkpt lat="43.01676" lon="-0.13777">
        <ele>837.93</ele>
        <time>2013-08-20T14:56:25Z</time>
      </trkpt>
      <trkpt lat="43.01674" lon="-0.13812">
        <ele>840.81</ele>
        <time>2013-08-20T14:56:35Z</time>
      </trkpt>
      <trkpt lat="43.01676" lon="-0.13833">
        <ele>842.25</ele>
        <time>2013-08-20T14:56:42Z</time>
      </trkpt>
      <trkpt lat="43.01671" lon="-0.13866">
        <ele>846.1</ele>
        <time>2013-08-20T14:56:53Z</time>
      </trkpt>
      <trkpt lat="43.01671" lon="-0.13873">
        <ele>846.1</ele>
        <time>2013-08-20T14:56:55Z</time>
      </trkpt>
      <trkpt lat="43.01673" lon="-0.13897">
        <ele>848.5</ele>
        <time>2013-08-20T14:57:03Z</time>
      </trkpt>
      <trkpt lat="43.01676" lon="-0.13932">
        <ele>851.38</ele>
        <time>2013-08-20T14:57:15Z</time>
      </trkpt>
      <trkpt lat="43.01676" lon="-0.13953">
        <ele>853.31</ele>
        <time>2013-08-20T14:57:22Z</time>
      </trkpt>
      <trkpt lat="43.01675" lon="-0.13967">
        <ele>854.75</ele>
        <time>2013-08-20T14:57:27Z</time>
      </trkpt>
      <trkpt lat="43.01672" lon="-0.13998">
        <ele>857.63</ele>
        <time>2013-08-20T14:57:37Z</time>
      </trkpt>
      <trkpt lat="43.01669" lon="-0.14025">
        <ele>860.04</ele>
        <time>2013-08-20T14:57:46Z</time>
      </trkpt>
      <trkpt lat="43.01667" lon="-0.1403">
        <ele>860.04</ele>
        <time>2013-08-20T14:57:48Z</time>
      </trkpt>
      <trkpt lat="43.01666" lon="-0.14039">
        <ele>861</ele>
        <time>2013-08-20T14:57:51Z</time>
      </trkpt>
      <trkpt lat="43.01664" lon="-0.14063">
        <ele>861.48</ele>
        <time>2013-08-20T14:57:59Z</time>
      </trkpt>
      <trkpt lat="43.01662" lon="-0.14076">
        <ele>862.92</ele>
        <time>2013-08-20T14:58:03Z</time>
      </trkpt>
      <trkpt lat="43.01658" lon="-0.14096">
        <ele>863.4</ele>
        <time>2013-08-20T14:58:09Z</time>
      </trkpt>
      <trkpt lat="43.01649" lon="-0.14152">
        <ele>866.77</ele>
        <time>2013-08-20T14:58:24Z</time>
      </trkpt>
      <trkpt lat="43.01642" lon="-0.14191">
        <ele>868.69</ele>
        <time>2013-08-20T14:58:35Z</time>
      </trkpt>
      <trkpt lat="43.01638" lon="-0.14246">
        <ele>869.65</ele>
        <time>2013-08-20T14:58:49Z</time>
      </trkpt>
      <trkpt lat="43.01633" lon="-0.14281">
        <ele>870.13</ele>
        <time>2013-08-20T14:58:58Z</time>
      </trkpt>
      <trkpt lat="43.01619" lon="-0.14277">
        <ele>871.57</ele>
        <time>2013-08-20T14:59:05Z</time>
      </trkpt>
      <trkpt lat="43.01623" lon="-0.14249">
        <ele>873.01</ele>
        <time>2013-08-20T14:59:13Z</time>
      </trkpt>
      <trkpt lat="43.01623" lon="-0.14212">
        <ele>874.46</ele>
        <time>2013-08-20T14:59:23Z</time>
      </trkpt>
      <trkpt lat="43.01612" lon="-0.14179">
        <ele>875.9</ele>
        <time>2013-08-20T14:59:33Z</time>
      </trkpt>
      <trkpt lat="43.01595" lon="-0.14112">
        <ele>875.9</ele>
        <time>2013-08-20T14:59:47Z</time>
      </trkpt>
      <trkpt lat="43.01591" lon="-0.14101">
        <ele>875.42</ele>
        <time>2013-08-20T14:59:49Z</time>
      </trkpt>
      <trkpt lat="43.01577" lon="-0.14078">
        <ele>874.46</ele>
        <time>2013-08-20T14:59:53Z</time>
      </trkpt>
      <trkpt lat="43.0157" lon="-0.14067">
        <ele>874.46</ele>
        <time>2013-08-20T14:59:55Z</time>
      </trkpt>
      <trkpt lat="43.01558" lon="-0.14039">
        <ele>873.5</ele>
        <time>2013-08-20T14:59:59Z</time>
      </trkpt>
      <trkpt lat="43.01539" lon="-0.13976">
        <ele>872.53</ele>
        <time>2013-08-20T15:00:08Z</time>
      </trkpt>
      <trkpt lat="43.01528" lon="-0.13909">
        <ele>872.05</ele>
        <time>2013-08-20T15:00:17Z</time>
      </trkpt>
      <trkpt lat="43.0152" lon="-0.13886">
        <ele>870.61</ele>
        <time>2013-08-20T15:00:20Z</time>
      </trkpt>
      <trkpt lat="43.01509" lon="-0.13809">
        <ele>866.77</ele>
        <time>2013-08-20T15:00:27Z</time>
      </trkpt>
      <trkpt lat="43.01507" lon="-0.13799">
        <ele>866.29</ele>
        <time>2013-08-20T15:00:28Z</time>
      </trkpt>
      <trkpt lat="43.01504" lon="-0.13768">
        <ele>864.36</ele>
        <time>2013-08-20T15:00:31Z</time>
      </trkpt>
      <trkpt lat="43.01503" lon="-0.13698">
        <ele>861.96</ele>
        <time>2013-08-20T15:00:37Z</time>
      </trkpt>
      <trkpt lat="43.01506" lon="-0.13597">
        <ele>858.59</ele>
        <time>2013-08-20T15:00:46Z</time>
      </trkpt>
      <trkpt lat="43.01506" lon="-0.13587">
        <ele>859.08</ele>
        <time>2013-08-20T15:00:47Z</time>
      </trkpt>
      <trkpt lat="43.01492" lon="-0.135">
        <ele>855.23</ele>
        <time>2013-08-20T15:00:55Z</time>
      </trkpt>
      <trkpt lat="43.01501" lon="-0.13442">
        <ele>854.27</ele>
        <time>2013-08-20T15:01:01Z</time>
      </trkpt>
      <trkpt lat="43.01512" lon="-0.13401">
        <ele>856.67</ele>
        <time>2013-08-20T15:01:11Z</time>
      </trkpt>
      <trkpt lat="43.01511" lon="-0.13396">
        <ele>858.11</ele>
        <time>2013-08-20T15:01:14Z</time>
      </trkpt>
      <trkpt lat="43.01501" lon="-0.13398">
        <ele>858.59</ele>
        <time>2013-08-20T15:01:20Z</time>
      </trkpt>
      <trkpt lat="43.01477" lon="-0.13413">
        <ele>861.96</ele>
        <time>2013-08-20T15:01:35Z</time>
      </trkpt>
      <trkpt lat="43.01457" lon="-0.13418">
        <ele>864.84</ele>
        <time>2013-08-20T15:01:47Z</time>
      </trkpt>
      <trkpt lat="43.01439" lon="-0.13423">
        <ele>868.21</ele>
        <time>2013-08-20T15:01:58Z</time>
      </trkpt>
      <trkpt lat="43.01429" lon="-0.13424">
        <ele>869.65</ele>
        <time>2013-08-20T15:02:04Z</time>
      </trkpt>
      <trkpt lat="43.01409" lon="-0.13427">
        <ele>873.01</ele>
        <time>2013-08-20T15:02:16Z</time>
      </trkpt>
      <trkpt lat="43.01396" lon="-0.1343">
        <ele>873.98</ele>
        <time>2013-08-20T15:02:23Z</time>
      </trkpt>
      <trkpt lat="43.01379" lon="-0.13406">
        <ele>876.38</ele>
        <time>2013-08-20T15:02:36Z</time>
      </trkpt>
      <trkpt lat="43.0137" lon="-0.13401">
        <ele>877.34</ele>
        <time>2013-08-20T15:02:41Z</time>
      </trkpt>
      <trkpt lat="43.01365" lon="-0.13403">
        <ele>878.3</ele>
        <time>2013-08-20T15:02:44Z</time>
      </trkpt>
      <trkpt lat="43.01355" lon="-0.13422">
        <ele>882.15</ele>
        <time>2013-08-20T15:02:56Z</time>
      </trkpt>
      <trkpt lat="43.01338" lon="-0.13446">
        <ele>883.59</ele>
        <time>2013-08-20T15:03:09Z</time>
      </trkpt>
      <trkpt lat="43.01318" lon="-0.13458">
        <ele>885.99</ele>
        <time>2013-08-20T15:03:20Z</time>
      </trkpt>
      <trkpt lat="43.01309" lon="-0.13454">
        <ele>886.47</ele>
        <time>2013-08-20T15:03:24Z</time>
      </trkpt>
      <trkpt lat="43.01308" lon="-0.13447">
        <ele>887.43</ele>
        <time>2013-08-20T15:03:27Z</time>
      </trkpt>
      <trkpt lat="43.01313" lon="-0.13438">
        <ele>888.88</ele>
        <time>2013-08-20T15:03:32Z</time>
      </trkpt>
      <trkpt lat="43.01319" lon="-0.13427">
        <ele>889.84</ele>
        <time>2013-08-20T15:03:38Z</time>
      </trkpt>
      <trkpt lat="43.01321" lon="-0.13395">
        <ele>893.68</ele>
        <time>2013-08-20T15:03:51Z</time>
      </trkpt>
      <trkpt lat="43.01313" lon="-0.13369">
        <ele>897.05</ele>
        <time>2013-08-20T15:04:03Z</time>
      </trkpt>
      <trkpt lat="43.01309" lon="-0.13355">
        <ele>898.49</ele>
        <time>2013-08-20T15:04:09Z</time>
      </trkpt>
      <trkpt lat="43.01305" lon="-0.13343">
        <ele>899.45</ele>
        <time>2013-08-20T15:04:14Z</time>
      </trkpt>
      <trkpt lat="43.01305" lon="-0.13338">
        <ele>899.93</ele>
        <time>2013-08-20T15:04:16Z</time>
      </trkpt>
      <trkpt lat="43.01302" lon="-0.13332">
        <ele>900.89</ele>
        <time>2013-08-20T15:04:19Z</time>
      </trkpt>
      <trkpt lat="43.01289" lon="-0.133">
        <ele>904.26</ele>
        <time>2013-08-20T15:04:33Z</time>
      </trkpt>
      <trkpt lat="43.01286" lon="-0.13292">
        <ele>904.74</ele>
        <time>2013-08-20T15:04:36Z</time>
      </trkpt>
      <trkpt lat="43.01281" lon="-0.13279">
        <ele>904.74</ele>
        <time>2013-08-20T15:04:41Z</time>
      </trkpt>
      <trkpt lat="43.01267" lon="-0.13242">
        <ele>904.74</ele>
        <time>2013-08-20T15:04:52Z</time>
      </trkpt>
      <trkpt lat="43.01263" lon="-0.13236">
        <ele>904.74</ele>
        <time>2013-08-20T15:04:54Z</time>
      </trkpt>
      <trkpt lat="43.01254" lon="-0.13208">
        <ele>905.22</ele>
        <time>2013-08-20T15:05:02Z</time>
      </trkpt>
      <trkpt lat="43.01257" lon="-0.13179">
        <ele>907.14</ele>
        <time>2013-08-20T15:05:11Z</time>
      </trkpt>
      <trkpt lat="43.01265" lon="-0.13153">
        <ele>908.1</ele>
        <time>2013-08-20T15:05:19Z</time>
      </trkpt>
      <trkpt lat="43.01265" lon="-0.13121">
        <ele>909.54</ele>
        <time>2013-08-20T15:05:28Z</time>
      </trkpt>
      <trkpt lat="43.01266" lon="-0.13104">
        <ele>910.51</ele>
        <time>2013-08-20T15:05:32Z</time>
      </trkpt>
      <trkpt lat="43.01255" lon="-0.13077">
        <ele>912.43</ele>
        <time>2013-08-20T15:05:42Z</time>
      </trkpt>
      <trkpt lat="43.01241" lon="-0.13052">
        <ele>912.43</ele>
        <time>2013-08-20T15:05:50Z</time>
      </trkpt>
      <trkpt lat="43.01228" lon="-0.13028">
        <ele>913.39</ele>
        <time>2013-08-20T15:05:58Z</time>
      </trkpt>
      <trkpt lat="43.01221" lon="-0.13013">
        <ele>914.83</ele>
        <time>2013-08-20T15:06:03Z</time>
      </trkpt>
      <trkpt lat="43.01206" lon="-0.1298">
        <ele>915.31</ele>
        <time>2013-08-20T15:06:15Z</time>
      </trkpt>
      <trkpt lat="43.01198" lon="-0.12958">
        <ele>916.27</ele>
        <time>2013-08-20T15:06:22Z</time>
      </trkpt>
      <trkpt lat="43.01193" lon="-0.12949">
        <ele>915.79</ele>
        <time>2013-08-20T15:06:27Z</time>
      </trkpt>
      <trkpt lat="43.01173" lon="-0.12908">
        <ele>916.75</ele>
        <time>2013-08-20T15:06:39Z</time>
      </trkpt>
      <trkpt lat="43.01163" lon="-0.12875">
        <ele>918.2</ele>
        <time>2013-08-20T15:06:48Z</time>
      </trkpt>
      <trkpt lat="43.01162" lon="-0.12868">
        <ele>918.2</ele>
        <time>2013-08-20T15:06:50Z</time>
      </trkpt>
      <trkpt lat="43.01151" lon="-0.1283">
        <ele>919.64</ele>
        <time>2013-08-20T15:07:00Z</time>
      </trkpt>
      <trkpt lat="43.01143" lon="-0.12798">
        <ele>921.56</ele>
        <time>2013-08-20T15:07:09Z</time>
      </trkpt>
      <trkpt lat="43.01137" lon="-0.12777">
        <ele>923</ele>
        <time>2013-08-20T15:07:16Z</time>
      </trkpt>
      <trkpt lat="43.01135" lon="-0.12771">
        <ele>923</ele>
        <time>2013-08-20T15:07:18Z</time>
      </trkpt>
      <trkpt lat="43.01132" lon="-0.12749">
        <ele>923.96</ele>
        <time>2013-08-20T15:07:25Z</time>
      </trkpt>
      <trkpt lat="43.0113" lon="-0.1274">
        <ele>924.45</ele>
        <time>2013-08-20T15:07:28Z</time>
      </trkpt>
      <trkpt lat="43.01125" lon="-0.12725">
        <ele>925.41</ele>
        <time>2013-08-20T15:07:33Z</time>
      </trkpt>
      <trkpt lat="43.01115" lon="-0.12684">
        <ele>926.85</ele>
        <time>2013-08-20T15:07:45Z</time>
      </trkpt>
      <trkpt lat="43.01113" lon="-0.1268">
        <ele>927.33</ele>
        <time>2013-08-20T15:07:47Z</time>
      </trkpt>
      <trkpt lat="43.0111" lon="-0.12672">
        <ele>928.77</ele>
        <time>2013-08-20T15:07:51Z</time>
      </trkpt>
      <trkpt lat="43.01105" lon="-0.12671">
        <ele>930.21</ele>
        <time>2013-08-20T15:07:57Z</time>
      </trkpt>
      <trkpt lat="43.01104" lon="-0.12674">
        <ele>930.69</ele>
        <time>2013-08-20T15:08:00Z</time>
      </trkpt>
      <trkpt lat="43.011" lon="-0.12681">
        <ele>932.14</ele>
        <time>2013-08-20T15:08:06Z</time>
      </trkpt>
      <trkpt lat="43.01099" lon="-0.12682">
        <ele>932.62</ele>
        <time>2013-08-20T15:08:07Z</time>
      </trkpt>
      <trkpt lat="43.01101" lon="-0.12686">
        <ele>933.58</ele>
        <time>2013-08-20T15:08:11Z</time>
      </trkpt>
      <trkpt lat="43.01097" lon="-0.127">
        <ele>936.46</ele>
        <time>2013-08-20T15:08:22Z</time>
      </trkpt>
      <trkpt lat="43.01096" lon="-0.12702">
        <ele>936.94</ele>
        <time>2013-08-20T15:08:24Z</time>
      </trkpt>
      <trkpt lat="43.01094" lon="-0.12709">
        <ele>937.9</ele>
        <time>2013-08-20T15:08:29Z</time>
      </trkpt>
      <trkpt lat="43.0109" lon="-0.12725">
        <ele>939.83</ele>
        <time>2013-08-20T15:08:40Z</time>
      </trkpt>
      <trkpt lat="43.01085" lon="-0.12747">
        <ele>943.19</ele>
        <time>2013-08-20T15:08:55Z</time>
      </trkpt>
      <trkpt lat="43.01085" lon="-0.12751">
        <ele>944.15</ele>
        <time>2013-08-20T15:08:58Z</time>
      </trkpt>
      <trkpt lat="43.01085" lon="-0.12762">
        <ele>945.59</ele>
        <time>2013-08-20T15:09:04Z</time>
      </trkpt>
      <trkpt lat="43.01085" lon="-0.12777">
        <ele>948.48</ele>
        <time>2013-08-20T15:09:14Z</time>
      </trkpt>
      <trkpt lat="43.01084" lon="-0.12793">
        <ele>949.92</ele>
        <time>2013-08-20T15:09:20Z</time>
      </trkpt>
      <trkpt lat="43.01084" lon="-0.12798">
        <ele>950.4</ele>
        <time>2013-08-20T15:09:22Z</time>
      </trkpt>
      <trkpt lat="43.01083" lon="-0.12806">
        <ele>951.84</ele>
        <time>2013-08-20T15:09:27Z</time>
      </trkpt>
      <trkpt lat="43.01081" lon="-0.12816">
        <ele>952.8</ele>
        <time>2013-08-20T15:09:33Z</time>
      </trkpt>
      <trkpt lat="43.01082" lon="-0.12825">
        <ele>954.25</ele>
        <time>2013-08-20T15:09:37Z</time>
      </trkpt>
      <trkpt lat="43.01084" lon="-0.12845">
        <ele>955.69</ele>
        <time>2013-08-20T15:09:45Z</time>
      </trkpt>
      <trkpt lat="43.0108" lon="-0.12872">
        <ele>957.13</ele>
        <time>2013-08-20T15:09:55Z</time>
      </trkpt>
      <trkpt lat="43.01072" lon="-0.12903">
        <ele>958.09</ele>
        <time>2013-08-20T15:10:05Z</time>
      </trkpt>
      <trkpt lat="43.01066" lon="-0.12919">
        <ele>958.57</ele>
        <time>2013-08-20T15:10:11Z</time>
      </trkpt>
      <trkpt lat="43.01042" lon="-0.12954">
        <ele>960.98</ele>
        <time>2013-08-20T15:10:26Z</time>
      </trkpt>
      <trkpt lat="43.0104" lon="-0.12958">
        <ele>961.46</ele>
        <time>2013-08-20T15:10:28Z</time>
      </trkpt>
      <trkpt lat="43.01034" lon="-0.12973">
        <ele>962.9</ele>
        <time>2013-08-20T15:10:34Z</time>
      </trkpt>
      <trkpt lat="43.01028" lon="-0.12992">
        <ele>964.34</ele>
        <time>2013-08-20T15:10:41Z</time>
      </trkpt>
      <trkpt lat="43.01025" lon="-0.12997">
        <ele>964.82</ele>
        <time>2013-08-20T15:10:43Z</time>
      </trkpt>
      <trkpt lat="43.01014" lon="-0.13027">
        <ele>967.7</ele>
        <time>2013-08-20T15:10:55Z</time>
      </trkpt>
      <trkpt lat="43.01006" lon="-0.1305">
        <ele>970.59</ele>
        <time>2013-08-20T15:11:05Z</time>
      </trkpt>
      <trkpt lat="43.00993" lon="-0.13079">
        <ele>972.51</ele>
        <time>2013-08-20T15:11:19Z</time>
      </trkpt>
      <trkpt lat="43.00978" lon="-0.13101">
        <ele>974.91</ele>
        <time>2013-08-20T15:11:30Z</time>
      </trkpt>
      <trkpt lat="43.00949" lon="-0.13124">
        <ele>976.36</ele>
        <time>2013-08-20T15:11:43Z</time>
      </trkpt>
      <trkpt lat="43.00947" lon="-0.13124">
        <ele>977.8</ele>
        <time>2013-08-20T15:11:46Z</time>
      </trkpt>
      <trkpt lat="43.00938" lon="-0.13134">
        <ele>979.24</ele>
        <time>2013-08-20T15:11:56Z</time>
      </trkpt>
      <trkpt lat="43.00936" lon="-0.13137">
        <ele>979.24</ele>
        <time>2013-08-20T15:12:08Z</time>
      </trkpt>
      <trkpt lat="43.00932" lon="-0.13137">
        <ele>979.72</ele>
        <time>2013-08-20T15:12:20Z</time>
      </trkpt>
      <trkpt lat="43.0093" lon="-0.13138">
        <ele>979.24</ele>
        <time>2013-08-20T15:12:32Z</time>
      </trkpt>
      <trkpt lat="43.00931" lon="-0.1314">
        <ele>979.72</ele>
        <time>2013-08-20T15:12:46Z</time>
      </trkpt>
      <trkpt lat="43.00932" lon="-0.13141">
        <ele>979.72</ele>
        <time>2013-08-20T15:13:07Z</time>
      </trkpt>
      <trkpt lat="43.0093" lon="-0.13142">
        <ele>980.2</ele>
        <time>2013-08-20T15:13:19Z</time>
      </trkpt>
      <trkpt lat="43.00928" lon="-0.13144">
        <ele>980.2</ele>
        <time>2013-08-20T15:13:36Z</time>
      </trkpt>
      <trkpt lat="43.00921" lon="-0.13146">
        <ele>980.2</ele>
        <time>2013-08-20T15:13:42Z</time>
      </trkpt>
      <trkpt lat="43.0091" lon="-0.13148">
        <ele>981.64</ele>
        <time>2013-08-20T15:13:49Z</time>
      </trkpt>
      <trkpt lat="43.00897" lon="-0.13148">
        <ele>983.57</ele>
        <time>2013-08-20T15:13:56Z</time>
      </trkpt>
      <trkpt lat="43.00886" lon="-0.13148">
        <ele>984.53</ele>
        <time>2013-08-20T15:14:03Z</time>
      </trkpt>
      <trkpt lat="43.00881" lon="-0.13146">
        <ele>985.01</ele>
        <time>2013-08-20T15:14:06Z</time>
      </trkpt>
      <trkpt lat="43.00877" lon="-0.13138">
        <ele>985.97</ele>
        <time>2013-08-20T15:14:10Z</time>
      </trkpt>
      <trkpt lat="43.00889" lon="-0.13118">
        <ele>987.89</ele>
        <time>2013-08-20T15:14:21Z</time>
      </trkpt>
      <trkpt lat="43.00901" lon="-0.13106">
        <ele>989.33</ele>
        <time>2013-08-20T15:14:31Z</time>
      </trkpt>
      <trkpt lat="43.00906" lon="-0.13099">
        <ele>990.78</ele>
        <time>2013-08-20T15:14:37Z</time>
      </trkpt>
      <trkpt lat="43.00894" lon="-0.13101">
        <ele>993.18</ele>
        <time>2013-08-20T15:14:46Z</time>
      </trkpt>
      <trkpt lat="43.00891" lon="-0.13101">
        <ele>993.18</ele>
        <time>2013-08-20T15:14:48Z</time>
      </trkpt>
      <trkpt lat="43.00879" lon="-0.13106">
        <ele>994.14</ele>
        <time>2013-08-20T15:14:55Z</time>
      </trkpt>
      <trkpt lat="43.00873" lon="-0.13103">
        <ele>995.58</ele>
        <time>2013-08-20T15:15:00Z</time>
      </trkpt>
      <trkpt lat="43.0087" lon="-0.13092">
        <ele>997.02</ele>
        <time>2013-08-20T15:15:07Z</time>
      </trkpt>
      <trkpt lat="43.00878" lon="-0.13078">
        <ele>999.43</ele>
        <time>2013-08-20T15:15:15Z</time>
      </trkpt>
      <trkpt lat="43.00884" lon="-0.13068">
        <ele>1000.39</ele>
        <time>2013-08-20T15:15:21Z</time>
      </trkpt>
      <trkpt lat="43.00891" lon="-0.13045">
        <ele>1002.79</ele>
        <time>2013-08-20T15:15:33Z</time>
      </trkpt>
      <trkpt lat="43.00881" lon="-0.13041">
        <ele>1003.75</ele>
        <time>2013-08-20T15:15:41Z</time>
      </trkpt>
      <trkpt lat="43.00866" lon="-0.13039">
        <ele>1005.2</ele>
        <time>2013-08-20T15:15:52Z</time>
      </trkpt>
      <trkpt lat="43.00865" lon="-0.13039">
        <ele>1005.68</ele>
        <time>2013-08-20T15:15:53Z</time>
      </trkpt>
      <trkpt lat="43.00857" lon="-0.13037">
        <ele>1006.16</ele>
        <time>2013-08-20T15:15:58Z</time>
      </trkpt>
      <trkpt lat="43.0084" lon="-0.13029">
        <ele>1009.52</ele>
        <time>2013-08-20T15:16:09Z</time>
      </trkpt>
      <trkpt lat="43.00838" lon="-0.13028">
        <ele>1010</ele>
        <time>2013-08-20T15:16:10Z</time>
      </trkpt>
      <trkpt lat="43.00817" lon="-0.13022">
        <ele>1012.89</ele>
        <time>2013-08-20T15:16:24Z</time>
      </trkpt>
      <trkpt lat="43.00806" lon="-0.13013">
        <ele>1016.25</ele>
        <time>2013-08-20T15:16:32Z</time>
      </trkpt>
      <trkpt lat="43.00804" lon="-0.13012">
        <ele>1016.73</ele>
        <time>2013-08-20T15:16:34Z</time>
      </trkpt>
      <trkpt lat="43.00798" lon="-0.13012">
        <ele>1017.21</ele>
        <time>2013-08-20T15:16:38Z</time>
      </trkpt>
      <trkpt lat="43.00793" lon="-0.1301">
        <ele>1017.69</ele>
        <time>2013-08-20T15:16:41Z</time>
      </trkpt>
      <trkpt lat="43.00767" lon="-0.13001">
        <ele>1020.1</ele>
        <time>2013-08-20T15:16:58Z</time>
      </trkpt>
      <trkpt lat="43.00752" lon="-0.12998">
        <ele>1020.58</ele>
        <time>2013-08-20T15:17:07Z</time>
      </trkpt>
      <trkpt lat="43.00749" lon="-0.12996">
        <ele>1020.1</ele>
        <time>2013-08-20T15:17:09Z</time>
      </trkpt>
      <trkpt lat="43.00736" lon="-0.12992">
        <ele>1021.54</ele>
        <time>2013-08-20T15:17:18Z</time>
      </trkpt>
      <trkpt lat="43.0072" lon="-0.12982">
        <ele>1023.46</ele>
        <time>2013-08-20T15:17:28Z</time>
      </trkpt>
      <trkpt lat="43.0072" lon="-0.12976">
        <ele>1023.94</ele>
        <time>2013-08-20T15:17:31Z</time>
      </trkpt>
      <trkpt lat="43.00726" lon="-0.12963">
        <ele>1027.31</ele>
        <time>2013-08-20T15:17:40Z</time>
      </trkpt>
      <trkpt lat="43.00726" lon="-0.12958">
        <ele>1028.75</ele>
        <time>2013-08-20T15:17:43Z</time>
      </trkpt>
      <trkpt lat="43.00729" lon="-0.12943">
        <ele>1031.63</ele>
        <time>2013-08-20T15:17:52Z</time>
      </trkpt>
      <trkpt lat="43.00729" lon="-0.1294">
        <ele>1032.11</ele>
        <time>2013-08-20T15:17:54Z</time>
      </trkpt>
      <trkpt lat="43.00729" lon="-0.12937">
        <ele>1033.07</ele>
        <time>2013-08-20T15:17:56Z</time>
      </trkpt>
      <trkpt lat="43.00735" lon="-0.12927">
        <ele>1034.52</ele>
        <time>2013-08-20T15:18:03Z</time>
      </trkpt>
      <trkpt lat="43.00735" lon="-0.12922">
        <ele>1035.96</ele>
        <time>2013-08-20T15:18:07Z</time>
      </trkpt>
      <trkpt lat="43.00737" lon="-0.12919">
        <ele>1036.44</ele>
        <time>2013-08-20T15:18:10Z</time>
      </trkpt>
      <trkpt lat="43.00737" lon="-0.12912">
        <ele>1037.4</ele>
        <time>2013-08-20T15:18:15Z</time>
      </trkpt>
      <trkpt lat="43.00739" lon="-0.12903">
        <ele>1038.84</ele>
        <time>2013-08-20T15:18:21Z</time>
      </trkpt>
      <trkpt lat="43.00741" lon="-0.12887">
        <ele>1040.76</ele>
        <time>2013-08-20T15:18:31Z</time>
      </trkpt>
      <trkpt lat="43.0074" lon="-0.12881">
        <ele>1041.73</ele>
        <time>2013-08-20T15:18:35Z</time>
      </trkpt>
      <trkpt lat="43.00738" lon="-0.12876">
        <ele>1042.69</ele>
        <time>2013-08-20T15:18:38Z</time>
      </trkpt>
      <trkpt lat="43.00739" lon="-0.12875">
        <ele>1043.65</ele>
        <time>2013-08-20T15:18:39Z</time>
      </trkpt>
      <trkpt lat="43.00739" lon="-0.12869">
        <ele>1044.61</ele>
        <time>2013-08-20T15:18:43Z</time>
      </trkpt>
      <trkpt lat="43.0074" lon="-0.12863">
        <ele>1045.57</ele>
        <time>2013-08-20T15:18:48Z</time>
      </trkpt>
      <trkpt lat="43.00741" lon="-0.12847">
        <ele>1048.94</ele>
        <time>2013-08-20T15:18:59Z</time>
      </trkpt>
      <trkpt lat="43.00741" lon="-0.12844">
        <ele>1048.94</ele>
        <time>2013-08-20T15:19:01Z</time>
      </trkpt>
      <trkpt lat="43.00739" lon="-0.12842">
        <ele>1049.42</ele>
        <time>2013-08-20T15:19:03Z</time>
      </trkpt>
      <trkpt lat="43.00737" lon="-0.12829">
        <ele>1052.78</ele>
        <time>2013-08-20T15:19:12Z</time>
      </trkpt>
      <trkpt lat="43.00732" lon="-0.12814">
        <ele>1054.7</ele>
        <time>2013-08-20T15:19:23Z</time>
      </trkpt>
      <trkpt lat="43.00723" lon="-0.12803">
        <ele>1057.11</ele>
        <time>2013-08-20T15:19:32Z</time>
      </trkpt>
      <trkpt lat="43.00717" lon="-0.12783">
        <ele>1060.47</ele>
        <time>2013-08-20T15:19:42Z</time>
      </trkpt>
      <trkpt lat="43.00714" lon="-0.12773">
        <ele>1061.43</ele>
        <time>2013-08-20T15:19:47Z</time>
      </trkpt>
      <trkpt lat="43.00712" lon="-0.12763">
        <ele>1063.36</ele>
        <time>2013-08-20T15:19:53Z</time>
      </trkpt>
      <trkpt lat="43.00712" lon="-0.12751">
        <ele>1064.32</ele>
        <time>2013-08-20T15:19:59Z</time>
      </trkpt>
      <trkpt lat="43.00711" lon="-0.12747">
        <ele>1065.76</ele>
        <time>2013-08-20T15:20:02Z</time>
      </trkpt>
      <trkpt lat="43.00705" lon="-0.12729">
        <ele>1066.72</ele>
        <time>2013-08-20T15:20:11Z</time>
      </trkpt>
      <trkpt lat="43.00705" lon="-0.12723">
        <ele>1067.2</ele>
        <time>2013-08-20T15:20:14Z</time>
      </trkpt>
      <trkpt lat="43.00694" lon="-0.12693">
        <ele>1070.08</ele>
        <time>2013-08-20T15:20:29Z</time>
      </trkpt>
      <trkpt lat="43.00687" lon="-0.12652">
        <ele>1070.08</ele>
        <time>2013-08-20T15:20:42Z</time>
      </trkpt>
      <trkpt lat="43.00684" lon="-0.1262">
        <ele>1070.57</ele>
        <time>2013-08-20T15:20:53Z</time>
      </trkpt>
      <trkpt lat="43.00681" lon="-0.1259">
        <ele>1072.97</ele>
        <time>2013-08-20T15:21:04Z</time>
      </trkpt>
      <trkpt lat="43.0068" lon="-0.12578">
        <ele>1073.93</ele>
        <time>2013-08-20T15:21:09Z</time>
      </trkpt>
      <trkpt lat="43.00682" lon="-0.12565">
        <ele>1076.33</ele>
        <time>2013-08-20T15:21:16Z</time>
      </trkpt>
      <trkpt lat="43.00683" lon="-0.12564">
        <ele>1076.81</ele>
        <time>2013-08-20T15:21:17Z</time>
      </trkpt>
      <trkpt lat="43.00685" lon="-0.12559">
        <ele>1077.78</ele>
        <time>2013-08-20T15:21:20Z</time>
      </trkpt>
      <trkpt lat="43.00686" lon="-0.12554">
        <ele>1078.74</ele>
        <time>2013-08-20T15:21:23Z</time>
      </trkpt>
      <trkpt lat="43.00689" lon="-0.12546">
        <ele>1080.66</ele>
        <time>2013-08-20T15:21:28Z</time>
      </trkpt>
      <trkpt lat="43.0069" lon="-0.12538">
        <ele>1082.1</ele>
        <time>2013-08-20T15:21:33Z</time>
      </trkpt>
      <trkpt lat="43.00695" lon="-0.12526">
        <ele>1083.54</ele>
        <time>2013-08-20T15:21:39Z</time>
      </trkpt>
      <trkpt lat="43.00697" lon="-0.12502">
        <ele>1084.99</ele>
        <time>2013-08-20T15:21:49Z</time>
      </trkpt>
      <trkpt lat="43.007" lon="-0.12476">
        <ele>1085.47</ele>
        <time>2013-08-20T15:21:59Z</time>
      </trkpt>
      <trkpt lat="43.00702" lon="-0.12454">
        <ele>1087.87</ele>
        <time>2013-08-20T15:22:09Z</time>
      </trkpt>
      <trkpt lat="43.00706" lon="-0.12435">
        <ele>1091.71</ele>
        <time>2013-08-20T15:22:19Z</time>
      </trkpt>
      <trkpt lat="43.00706" lon="-0.12426">
        <ele>1093.16</ele>
        <time>2013-08-20T15:22:26Z</time>
      </trkpt>
      <trkpt lat="43.00705" lon="-0.12419">
        <ele>1094.6</ele>
        <time>2013-08-20T15:22:31Z</time>
      </trkpt>
      <trkpt lat="43.00703" lon="-0.12414">
        <ele>1096.04</ele>
        <time>2013-08-20T15:22:35Z</time>
      </trkpt>
      <trkpt lat="43.00702" lon="-0.12408">
        <ele>1097.48</ele>
        <time>2013-08-20T15:22:39Z</time>
      </trkpt>
      <trkpt lat="43.00693" lon="-0.12397">
        <ele>1099.4</ele>
        <time>2013-08-20T15:22:50Z</time>
      </trkpt>
      <trkpt lat="43.00699" lon="-0.12398">
        <ele>1099.4</ele>
        <time>2013-08-20T15:23:00Z</time>
      </trkpt>
      <trkpt lat="43.00697" lon="-0.12399">
        <ele>1099.4</ele>
        <time>2013-08-20T15:23:02Z</time>
      </trkpt>
      <trkpt lat="43.00693" lon="-0.12398">
        <ele>1099.89</ele>
        <time>2013-08-20T15:23:06Z</time>
      </trkpt>
      <trkpt lat="43.00689" lon="-0.12402">
        <ele>1100.37</ele>
        <time>2013-08-20T15:23:20Z</time>
      </trkpt>
      <trkpt lat="43.00686" lon="-0.12402">
        <ele>1100.85</ele>
        <time>2013-08-20T15:23:31Z</time>
      </trkpt>
      <trkpt lat="43.00688" lon="-0.12401">
        <ele>1098.92</ele>
        <time>2013-08-20T15:23:46Z</time>
      </trkpt>
      <trkpt lat="43.00688" lon="-0.12401">
        <ele>1093.64</ele>
        <time>2013-08-20T15:23:54Z</time>
      </trkpt>
      <trkpt lat="43.00688" lon="-0.12401">
        <ele>1099.89</ele>
        <time>2013-08-20T15:23:55Z</time>
      </trkpt>
      <trkpt lat="43.00687" lon="-0.12401">
        <ele>1099.4</ele>
        <time>2013-08-20T15:24:24Z</time>
      </trkpt>
      <trkpt lat="43.00687" lon="-0.124">
        <ele>1099.89</ele>
        <time>2013-08-20T15:24:57Z</time>
      </trkpt>
      <trkpt lat="43.00687" lon="-0.124">
        <ele>1099.4</ele>
        <time>2013-08-20T15:25:27Z</time>
      </trkpt>
      <trkpt lat="43.00687" lon="-0.124">
        <ele>1099.4</ele>
        <time>2013-08-20T15:25:56Z</time>
      </trkpt>
      <trkpt lat="43.00688" lon="-0.12399">
        <ele>1099.89</ele>
        <time>2013-08-20T15:26:11Z</time>
      </trkpt>
      <trkpt lat="43.00689" lon="-0.12401">
        <ele>1099.4</ele>
        <time>2013-08-20T15:26:20Z</time>
      </trkpt>
      <trkpt lat="43.00689" lon="-0.12403">
        <ele>1098.92</ele>
        <time>2013-08-20T15:26:32Z</time>
      </trkpt>
      <trkpt lat="43.00689" lon="-0.12403">
        <ele>1099.89</ele>
        <time>2013-08-20T15:26:47Z</time>
      </trkpt>
      <trkpt lat="43.00689" lon="-0.12403">
        <ele>1099.4</ele>
        <time>2013-08-20T15:27:02Z</time>
      </trkpt>
      <trkpt lat="43.00688" lon="-0.12403">
        <ele>1100.37</ele>
        <time>2013-08-20T15:27:18Z</time>
      </trkpt>
      <trkpt lat="43.00688" lon="-0.12403">
        <ele>1100.37</ele>
        <time>2013-08-20T15:27:19Z</time>
      </trkpt>
      <trkpt lat="43.00687" lon="-0.12403">
        <ele>1100.37</ele>
        <time>2013-08-20T15:27:21Z</time>
      </trkpt>
      <trkpt lat="43.00681" lon="-0.124">
        <ele>1099.4</ele>
        <time>2013-08-20T15:27:26Z</time>
      </trkpt>
      <trkpt lat="43.00664" lon="-0.12408">
        <ele>1095.56</ele>
        <time>2013-08-20T15:27:33Z</time>
      </trkpt>
      <trkpt lat="43.00653" lon="-0.12419">
        <ele>1091.23</ele>
        <time>2013-08-20T15:27:37Z</time>
      </trkpt>
      <trkpt lat="43.00647" lon="-0.12422">
        <ele>1088.35</ele>
        <time>2013-08-20T15:27:39Z</time>
      </trkpt>
      <trkpt lat="43.00638" lon="-0.12429">
        <ele>1084.99</ele>
        <time>2013-08-20T15:27:42Z</time>
      </trkpt>
      <trkpt lat="43.00631" lon="-0.12431">
        <ele>1082.1</ele>
        <time>2013-08-20T15:27:44Z</time>
      </trkpt>
      <trkpt lat="43.00619" lon="-0.12434">
        <ele>1077.78</ele>
        <time>2013-08-20T15:27:48Z</time>
      </trkpt>
      <trkpt lat="43.00612" lon="-0.12434">
        <ele>1073.45</ele>
        <time>2013-08-20T15:27:51Z</time>
      </trkpt>
      <trkpt lat="43.00595" lon="-0.12437">
        <ele>1070.08</ele>
        <time>2013-08-20T15:27:56Z</time>
      </trkpt>
      <trkpt lat="43.00585" lon="-0.12438">
        <ele>1069.12</ele>
        <time>2013-08-20T15:27:58Z</time>
      </trkpt>
      <trkpt lat="43.00573" lon="-0.1247">
        <ele>1066.72</ele>
        <time>2013-08-20T15:28:07Z</time>
      </trkpt>
      <trkpt lat="43.00576" lon="-0.12497">
        <ele>1062.87</ele>
        <time>2013-08-20T15:28:15Z</time>
      </trkpt>
      <trkpt lat="43.00576" lon="-0.12499">
        <ele>1062.87</ele>
        <time>2013-08-20T15:28:16Z</time>
      </trkpt>
      <trkpt lat="43.00584" lon="-0.12517">
        <ele>1060.47</ele>
        <time>2013-08-20T15:28:22Z</time>
      </trkpt>
      <trkpt lat="43.00586" lon="-0.12526">
        <ele>1059.99</ele>
        <time>2013-08-20T15:28:25Z</time>
      </trkpt>
      <trkpt lat="43.00586" lon="-0.12533">
        <ele>1059.03</ele>
        <time>2013-08-20T15:28:28Z</time>
      </trkpt>
      <trkpt lat="43.00584" lon="-0.12541">
        <ele>1058.55</ele>
        <time>2013-08-20T15:28:32Z</time>
      </trkpt>
      <trkpt lat="43.00584" lon="-0.12562">
        <ele>1056.63</ele>
        <time>2013-08-20T15:28:42Z</time>
      </trkpt>
      <trkpt lat="43.00589" lon="-0.12584">
        <ele>1055.67</ele>
        <time>2013-08-20T15:28:52Z</time>
      </trkpt>
      <trkpt lat="43.00591" lon="-0.12589">
        <ele>1055.67</ele>
        <time>2013-08-20T15:28:56Z</time>
      </trkpt>
      <trkpt lat="43.00591" lon="-0.12593">
        <ele>1055.67</ele>
        <time>2013-08-20T15:28:58Z</time>
      </trkpt>
      <trkpt lat="43.00597" lon="-0.12604">
        <ele>1054.7</ele>
        <time>2013-08-20T15:29:05Z</time>
      </trkpt>
      <trkpt lat="43.006" lon="-0.12612">
        <ele>1054.22</ele>
        <time>2013-08-20T15:29:08Z</time>
      </trkpt>
      <trkpt lat="43.00606" lon="-0.12627">
        <ele>1052.3</ele>
        <time>2013-08-20T15:29:15Z</time>
      </trkpt>
      <trkpt lat="43.00612" lon="-0.12639">
        <ele>1050.38</ele>
        <time>2013-08-20T15:29:21Z</time>
      </trkpt>
      <trkpt lat="43.00613" lon="-0.12644">
        <ele>1048.94</ele>
        <time>2013-08-20T15:29:23Z</time>
      </trkpt>
      <trkpt lat="43.00606" lon="-0.12666">
        <ele>1045.57</ele>
        <time>2013-08-20T15:29:27Z</time>
      </trkpt>
      <trkpt lat="43.00604" lon="-0.12672">
        <ele>1045.57</ele>
        <time>2013-08-20T15:29:28Z</time>
      </trkpt>
      <trkpt lat="43.00596" lon="-0.12695">
        <ele>1041.73</ele>
        <time>2013-08-20T15:29:32Z</time>
      </trkpt>
      <trkpt lat="43.00587" lon="-0.1271">
        <ele>1038.36</ele>
        <time>2013-08-20T15:29:36Z</time>
      </trkpt>
      <trkpt lat="43.00583" lon="-0.12717">
        <ele>1036.44</ele>
        <time>2013-08-20T15:29:38Z</time>
      </trkpt>
      <trkpt lat="43.00575" lon="-0.12725">
        <ele>1033.55</ele>
        <time>2013-08-20T15:29:41Z</time>
      </trkpt>
      <trkpt lat="43.00564" lon="-0.12737">
        <ele>1028.75</ele>
        <time>2013-08-20T15:29:45Z</time>
      </trkpt>
      <trkpt lat="43.00554" lon="-0.12749">
        <ele>1024.9</ele>
        <time>2013-08-20T15:29:49Z</time>
      </trkpt>
      <trkpt lat="43.00545" lon="-0.12757">
        <ele>1022.02</ele>
        <time>2013-08-20T15:29:52Z</time>
      </trkpt>
      <trkpt lat="43.00536" lon="-0.12777">
        <ele>1017.69</ele>
        <time>2013-08-20T15:29:58Z</time>
      </trkpt>
      <trkpt lat="43.00531" lon="-0.12781">
        <ele>1016.73</ele>
        <time>2013-08-20T15:30:00Z</time>
      </trkpt>
      <trkpt lat="43.00521" lon="-0.12783">
        <ele>1013.85</ele>
        <time>2013-08-20T15:30:05Z</time>
      </trkpt>
      <trkpt lat="43.00508" lon="-0.12785">
        <ele>1011.44</ele>
        <time>2013-08-20T15:30:09Z</time>
      </trkpt>
      <trkpt lat="43.00494" lon="-0.1278">
        <ele>1007.12</ele>
        <time>2013-08-20T15:30:13Z</time>
      </trkpt>
      <trkpt lat="43.00486" lon="-0.1278">
        <ele>1004.72</ele>
        <time>2013-08-20T15:30:16Z</time>
      </trkpt>
      <trkpt lat="43.00476" lon="-0.12776">
        <ele>1000.87</ele>
        <time>2013-08-20T15:30:21Z</time>
      </trkpt>
      <trkpt lat="43.00474" lon="-0.12775">
        <ele>1000.39</ele>
        <time>2013-08-20T15:30:22Z</time>
      </trkpt>
      <trkpt lat="43.0047" lon="-0.12771">
        <ele>998.95</ele>
        <time>2013-08-20T15:30:24Z</time>
      </trkpt>
      <trkpt lat="43.0046" lon="-0.12765">
        <ele>994.62</ele>
        <time>2013-08-20T15:30:29Z</time>
      </trkpt>
      <trkpt lat="43.00457" lon="-0.12763">
        <ele>993.18</ele>
        <time>2013-08-20T15:30:30Z</time>
      </trkpt>
      <trkpt lat="43.00447" lon="-0.12749">
        <ele>988.85</ele>
        <time>2013-08-20T15:30:34Z</time>
      </trkpt>
      <trkpt lat="43.00442" lon="-0.1274">
        <ele>984.53</ele>
        <time>2013-08-20T15:30:37Z</time>
      </trkpt>
      <trkpt lat="43.00438" lon="-0.12739">
        <ele>983.57</ele>
        <time>2013-08-20T15:30:39Z</time>
      </trkpt>
      <trkpt lat="43.00437" lon="-0.12739">
        <ele>983.57</ele>
        <time>2013-08-20T15:30:40Z</time>
      </trkpt>
      <trkpt lat="43.00427" lon="-0.12752">
        <ele>979.72</ele>
        <time>2013-08-20T15:30:44Z</time>
      </trkpt>
      <trkpt lat="43.00415" lon="-0.12769">
        <ele>976.84</ele>
        <time>2013-08-20T15:30:49Z</time>
      </trkpt>
      <trkpt lat="43.00408" lon="-0.12789">
        <ele>973.47</ele>
        <time>2013-08-20T15:30:53Z</time>
      </trkpt>
      <trkpt lat="43.00396" lon="-0.12824">
        <ele>971.07</ele>
        <time>2013-08-20T15:31:00Z</time>
      </trkpt>
      <trkpt lat="43.00374" lon="-0.1286">
        <ele>968.67</ele>
        <time>2013-08-20T15:31:07Z</time>
      </trkpt>
      <trkpt lat="43.00355" lon="-0.12873">
        <ele>965.78</ele>
        <time>2013-08-20T15:31:16Z</time>
      </trkpt>
      <trkpt lat="43.00347" lon="-0.12885">
        <ele>963.86</ele>
        <time>2013-08-20T15:31:21Z</time>
      </trkpt>
      <trkpt lat="43.00339" lon="-0.12893">
        <ele>961.94</ele>
        <time>2013-08-20T15:31:23Z</time>
      </trkpt>
      <trkpt lat="43.00338" lon="-0.12894">
        <ele>961.94</ele>
        <time>2013-08-20T15:31:24Z</time>
      </trkpt>
      <trkpt lat="43.00329" lon="-0.12888">
        <ele>960.01</ele>
        <time>2013-08-20T15:31:27Z</time>
      </trkpt>
      <trkpt lat="43.00327" lon="-0.12884">
        <ele>959.05</ele>
        <time>2013-08-20T15:31:28Z</time>
      </trkpt>
      <trkpt lat="43.00324" lon="-0.12876">
        <ele>957.61</ele>
        <time>2013-08-20T15:31:30Z</time>
      </trkpt>
      <trkpt lat="43.00323" lon="-0.12867">
        <ele>955.21</ele>
        <time>2013-08-20T15:31:34Z</time>
      </trkpt>
      <trkpt lat="43.00325" lon="-0.12861">
        <ele>953.77</ele>
        <time>2013-08-20T15:31:37Z</time>
      </trkpt>
      <trkpt lat="43.00326" lon="-0.12859">
        <ele>952.8</ele>
        <time>2013-08-20T15:31:38Z</time>
      </trkpt>
      <trkpt lat="43.00326" lon="-0.12858">
        <ele>952.32</ele>
        <time>2013-08-20T15:31:39Z</time>
      </trkpt>
      <trkpt lat="43.00319" lon="-0.12833">
        <ele>948.96</ele>
        <time>2013-08-20T15:31:45Z</time>
      </trkpt>
      <trkpt lat="43.00317" lon="-0.12817">
        <ele>947.52</ele>
        <time>2013-08-20T15:31:50Z</time>
      </trkpt>
      <trkpt lat="43.00322" lon="-0.12777">
        <ele>945.11</ele>
        <time>2013-08-20T15:32:01Z</time>
      </trkpt>
      <trkpt lat="43.00325" lon="-0.12757">
        <ele>942.71</ele>
        <time>2013-08-20T15:32:06Z</time>
      </trkpt>
      <trkpt lat="43.00331" lon="-0.12739">
        <ele>940.79</ele>
        <time>2013-08-20T15:32:12Z</time>
      </trkpt>
      <trkpt lat="43.00324" lon="-0.12698">
        <ele>937.9</ele>
        <time>2013-08-20T15:32:22Z</time>
      </trkpt>
      <trkpt lat="43.00312" lon="-0.12671">
        <ele>934.54</ele>
        <time>2013-08-20T15:32:30Z</time>
      </trkpt>
      <trkpt lat="43.0031" lon="-0.12668">
        <ele>933.58</ele>
        <time>2013-08-20T15:32:32Z</time>
      </trkpt>
      <trkpt lat="43.0031" lon="-0.12656">
        <ele>931.65</ele>
        <time>2013-08-20T15:32:35Z</time>
      </trkpt>
      <trkpt lat="43.0031" lon="-0.12648">
        <ele>930.21</ele>
        <time>2013-08-20T15:32:42Z</time>
      </trkpt>
      <trkpt lat="43.00308" lon="-0.12642">
        <ele>929.73</ele>
        <time>2013-08-20T15:32:43Z</time>
      </trkpt>
      <trkpt lat="43.00304" lon="-0.12636">
        <ele>928.77</ele>
        <time>2013-08-20T15:32:45Z</time>
      </trkpt>
      <trkpt lat="43.00301" lon="-0.12631">
        <ele>928.29</ele>
        <time>2013-08-20T15:32:46Z</time>
      </trkpt>
      <trkpt lat="43.00299" lon="-0.1262">
        <ele>927.33</ele>
        <time>2013-08-20T15:32:48Z</time>
      </trkpt>
      <trkpt lat="43.00297" lon="-0.12617">
        <ele>926.37</ele>
        <time>2013-08-20T15:32:49Z</time>
      </trkpt>
      <trkpt lat="43.0029" lon="-0.12603">
        <ele>924.45</ele>
        <time>2013-08-20T15:32:52Z</time>
      </trkpt>
      <trkpt lat="43.00279" lon="-0.12598">
        <ele>921.56</ele>
        <time>2013-08-20T15:32:55Z</time>
      </trkpt>
      <trkpt lat="43.00275" lon="-0.12597">
        <ele>920.6</ele>
        <time>2013-08-20T15:32:56Z</time>
      </trkpt>
      <trkpt lat="43.00272" lon="-0.12596">
        <ele>919.16</ele>
        <time>2013-08-20T15:32:57Z</time>
      </trkpt>
      <trkpt lat="43.00264" lon="-0.12592">
        <ele>916.27</ele>
        <time>2013-08-20T15:33:00Z</time>
      </trkpt>
      <trkpt lat="43.00258" lon="-0.12587">
        <ele>912.43</ele>
        <time>2013-08-20T15:33:03Z</time>
      </trkpt>
      <trkpt lat="43.00254" lon="-0.12585">
        <ele>910.51</ele>
        <time>2013-08-20T15:33:05Z</time>
      </trkpt>
      <trkpt lat="43.00252" lon="-0.12584">
        <ele>910.03</ele>
        <time>2013-08-20T15:33:06Z</time>
      </trkpt>
      <trkpt lat="43.00248" lon="-0.1258">
        <ele>908.1</ele>
        <time>2013-08-20T15:33:08Z</time>
      </trkpt>
      <trkpt lat="43.00246" lon="-0.12578">
        <ele>906.66</ele>
        <time>2013-08-20T15:33:10Z</time>
      </trkpt>
      <trkpt lat="43.00245" lon="-0.12574">
        <ele>905.22</ele>
        <time>2013-08-20T15:33:12Z</time>
      </trkpt>
      <trkpt lat="43.00241" lon="-0.12565">
        <ele>901.85</ele>
        <time>2013-08-20T15:33:15Z</time>
      </trkpt>
      <trkpt lat="43.00241" lon="-0.1256">
        <ele>900.41</ele>
        <time>2013-08-20T15:33:17Z</time>
      </trkpt>
      <trkpt lat="43.00242" lon="-0.1255">
        <ele>898.49</ele>
        <time>2013-08-20T15:33:21Z</time>
      </trkpt>
      <trkpt lat="43.00248" lon="-0.12535">
        <ele>894.16</ele>
        <time>2013-08-20T15:33:25Z</time>
      </trkpt>
      <trkpt lat="43.00253" lon="-0.12518">
        <ele>891.76</ele>
        <time>2013-08-20T15:33:28Z</time>
      </trkpt>
      <trkpt lat="43.00247" lon="-0.12499">
        <ele>889.84</ele>
        <time>2013-08-20T15:33:30Z</time>
      </trkpt>
      <trkpt lat="43.00243" lon="-0.12473">
        <ele>886.47</ele>
        <time>2013-08-20T15:33:35Z</time>
      </trkpt>
      <trkpt lat="43.0024" lon="-0.12453">
        <ele>883.11</ele>
        <time>2013-08-20T15:33:39Z</time>
      </trkpt>
      <trkpt lat="43.00237" lon="-0.12444">
        <ele>882.63</ele>
        <time>2013-08-20T15:33:43Z</time>
      </trkpt>
      <trkpt lat="43.00235" lon="-0.12441">
        <ele>882.15</ele>
        <time>2013-08-20T15:33:57Z</time>
      </trkpt>
      <trkpt lat="43.00235" lon="-0.12442">
        <ele>881.19</ele>
        <time>2013-08-20T15:33:58Z</time>
      </trkpt>
      <trkpt lat="43.00233" lon="-0.12442">
        <ele>882.15</ele>
        <time>2013-08-20T15:34:02Z</time>
      </trkpt>
      <trkpt lat="43.00229" lon="-0.1244">
        <ele>880.71</ele>
        <time>2013-08-20T15:34:04Z</time>
      </trkpt>
      <trkpt lat="43.00229" lon="-0.12438">
        <ele>880.22</ele>
        <time>2013-08-20T15:34:05Z</time>
      </trkpt>
      <trkpt lat="43.00229" lon="-0.12432">
        <ele>879.26</ele>
        <time>2013-08-20T15:34:07Z</time>
      </trkpt>
      <trkpt lat="43.00221" lon="-0.12419">
        <ele>875.9</ele>
        <time>2013-08-20T15:34:11Z</time>
      </trkpt>
      <trkpt lat="43.00211" lon="-0.12413">
        <ele>873.01</ele>
        <time>2013-08-20T15:34:13Z</time>
      </trkpt>
      <trkpt lat="43.00207" lon="-0.12411">
        <ele>871.57</ele>
        <time>2013-08-20T15:34:14Z</time>
      </trkpt>
      <trkpt lat="43.00202" lon="-0.12408">
        <ele>869.17</ele>
        <time>2013-08-20T15:34:16Z</time>
      </trkpt>
      <trkpt lat="43.00195" lon="-0.12404">
        <ele>866.77</ele>
        <time>2013-08-20T15:34:18Z</time>
      </trkpt>
      <trkpt lat="43.00185" lon="-0.12401">
        <ele>863.88</ele>
        <time>2013-08-20T15:34:22Z</time>
      </trkpt>
      <trkpt lat="43.00175" lon="-0.12394">
        <ele>860.52</ele>
        <time>2013-08-20T15:34:25Z</time>
      </trkpt>
      <trkpt lat="43.00168" lon="-0.12386">
        <ele>857.15</ele>
        <time>2013-08-20T15:34:30Z</time>
      </trkpt>
      <trkpt lat="43.00168" lon="-0.1238">
        <ele>854.27</ele>
        <time>2013-08-20T15:34:33Z</time>
      </trkpt>
      <trkpt lat="43.00168" lon="-0.1238">
        <ele>853.79</ele>
        <time>2013-08-20T15:34:34Z</time>
      </trkpt>
      <trkpt lat="43.00161" lon="-0.12373">
        <ele>852.83</ele>
        <time>2013-08-20T15:34:35Z</time>
      </trkpt>
      <trkpt lat="43.00155" lon="-0.12363">
        <ele>850.42</ele>
        <time>2013-08-20T15:34:37Z</time>
      </trkpt>
      <trkpt lat="43.0015" lon="-0.12355">
        <ele>848.02</ele>
        <time>2013-08-20T15:34:39Z</time>
      </trkpt>
      <trkpt lat="43.00138" lon="-0.12347">
        <ele>844.18</ele>
        <time>2013-08-20T15:34:44Z</time>
      </trkpt>
      <trkpt lat="43.00134" lon="-0.1234">
        <ele>840.81</ele>
        <time>2013-08-20T15:34:48Z</time>
      </trkpt>
      <trkpt lat="43.00133" lon="-0.12337">
        <ele>839.85</ele>
        <time>2013-08-20T15:34:49Z</time>
      </trkpt>
      <trkpt lat="43.00129" lon="-0.12336">
        <ele>838.89</ele>
        <time>2013-08-20T15:34:50Z</time>
      </trkpt>
      <trkpt lat="43.00114" lon="-0.12342">
        <ele>836.48</ele>
        <time>2013-08-20T15:34:53Z</time>
      </trkpt>
      <trkpt lat="43.0011" lon="-0.12345">
        <ele>836</ele>
        <time>2013-08-20T15:34:54Z</time>
      </trkpt>
      <trkpt lat="43.00103" lon="-0.12351">
        <ele>835.52</ele>
        <time>2013-08-20T15:34:55Z</time>
      </trkpt>
      <trkpt lat="43.00066" lon="-0.12381">
        <ele>831.68</ele>
        <time>2013-08-20T15:35:06Z</time>
      </trkpt>
      <trkpt lat="43.00055" lon="-0.12384">
        <ele>829.27</ele>
        <time>2013-08-20T15:35:08Z</time>
      </trkpt>
      <trkpt lat="43.00053" lon="-0.12385">
        <ele>828.79</ele>
        <time>2013-08-20T15:35:09Z</time>
      </trkpt>
      <trkpt lat="43.00072" lon="-0.12367">
        <ele>827.35</ele>
        <time>2013-08-20T15:35:10Z</time>
      </trkpt>
      <trkpt lat="43.00102" lon="-0.12305">
        <ele>823.99</ele>
        <time>2013-08-20T15:35:13Z</time>
      </trkpt>
      <trkpt lat="43.00101" lon="-0.12297">
        <ele>822.06</ele>
        <time>2013-08-20T15:35:16Z</time>
      </trkpt>
      <trkpt lat="43.00094" lon="-0.12297">
        <ele>819.66</ele>
        <time>2013-08-20T15:35:19Z</time>
      </trkpt>
      <trkpt lat="43.00089" lon="-0.12299">
        <ele>818.7</ele>
        <time>2013-08-20T15:35:21Z</time>
      </trkpt>
      <trkpt lat="43.00084" lon="-0.12303">
        <ele>817.74</ele>
        <time>2013-08-20T15:35:23Z</time>
      </trkpt>
      <trkpt lat="43.00067" lon="-0.12306">
        <ele>813.89</ele>
        <time>2013-08-20T15:35:28Z</time>
      </trkpt>
      <trkpt lat="43.00058" lon="-0.12305">
        <ele>812.45</ele>
        <time>2013-08-20T15:35:31Z</time>
      </trkpt>
      <trkpt lat="43.00051" lon="-0.12298">
        <ele>808.13</ele>
        <time>2013-08-20T15:35:35Z</time>
      </trkpt>
      <trkpt lat="43.00046" lon="-0.12291">
        <ele>806.2</ele>
        <time>2013-08-20T15:35:41Z</time>
      </trkpt>
      <trkpt lat="43.00052" lon="-0.12284">
        <ele>806.2</ele>
        <time>2013-08-20T15:35:45Z</time>
      </trkpt>
      <trkpt lat="43.00066" lon="-0.12268">
        <ele>805.72</ele>
        <time>2013-08-20T15:35:50Z</time>
      </trkpt>
      <trkpt lat="43.00084" lon="-0.12242">
        <ele>804.28</ele>
        <time>2013-08-20T15:35:55Z</time>
      </trkpt>
      <trkpt lat="43.00108" lon="-0.12198">
        <ele>803.8</ele>
        <time>2013-08-20T15:36:05Z</time>
      </trkpt>
      <trkpt lat="43.00113" lon="-0.12184">
        <ele>803.32</ele>
        <time>2013-08-20T15:36:08Z</time>
      </trkpt>
      <trkpt lat="43.00125" lon="-0.12163">
        <ele>802.36</ele>
        <time>2013-08-20T15:36:12Z</time>
      </trkpt>
      <trkpt lat="43.0016" lon="-0.1209">
        <ele>799.95</ele>
        <time>2013-08-20T15:36:22Z</time>
      </trkpt>
      <trkpt lat="43.00171" lon="-0.12068">
        <ele>799.95</ele>
        <time>2013-08-20T15:36:25Z</time>
      </trkpt>
      <trkpt lat="43.00185" lon="-0.12047">
        <ele>798.03</ele>
        <time>2013-08-20T15:36:29Z</time>
      </trkpt>
      <trkpt lat="43.00197" lon="-0.12033">
        <ele>796.59</ele>
        <time>2013-08-20T15:36:31Z</time>
      </trkpt>
      <trkpt lat="43.00234" lon="-0.1201">
        <ele>791.78</ele>
        <time>2013-08-20T15:36:37Z</time>
      </trkpt>
      <trkpt lat="43.00242" lon="-0.11998">
        <ele>790.34</ele>
        <time>2013-08-20T15:36:40Z</time>
      </trkpt>
      <trkpt lat="43.00255" lon="-0.11957">
        <ele>788.9</ele>
        <time>2013-08-20T15:36:49Z</time>
      </trkpt>
      <trkpt lat="43.00257" lon="-0.11949">
        <ele>787.94</ele>
        <time>2013-08-20T15:36:50Z</time>
      </trkpt>
      <trkpt lat="43.00271" lon="-0.11902">
        <ele>784.57</ele>
        <time>2013-08-20T15:36:56Z</time>
      </trkpt>
      <trkpt lat="43.00285" lon="-0.11869">
        <ele>782.17</ele>
        <time>2013-08-20T15:37:01Z</time>
      </trkpt>
      <trkpt lat="43.00296" lon="-0.11842">
        <ele>778.81</ele>
        <time>2013-08-20T15:37:08Z</time>
      </trkpt>
      <trkpt lat="43.00297" lon="-0.11838">
        <ele>778.32</ele>
        <time>2013-08-20T15:37:09Z</time>
      </trkpt>
      <trkpt lat="43.00297" lon="-0.11824">
        <ele>774.96</ele>
        <time>2013-08-20T15:37:12Z</time>
      </trkpt>
      <trkpt lat="43.00296" lon="-0.1181">
        <ele>773.04</ele>
        <time>2013-08-20T15:37:15Z</time>
      </trkpt>
      <trkpt lat="43.00294" lon="-0.11806">
        <ele>772.08</ele>
        <time>2013-08-20T15:37:17Z</time>
      </trkpt>
      <trkpt lat="43.00289" lon="-0.1181">
        <ele>769.19</ele>
        <time>2013-08-20T15:37:19Z</time>
      </trkpt>
      <trkpt lat="43.00282" lon="-0.11811">
        <ele>766.31</ele>
        <time>2013-08-20T15:37:24Z</time>
      </trkpt>
      <trkpt lat="43.0028" lon="-0.11805">
        <ele>764.87</ele>
        <time>2013-08-20T15:37:27Z</time>
      </trkpt>
      <trkpt lat="43.0028" lon="-0.11802">
        <ele>762.46</ele>
        <time>2013-08-20T15:37:28Z</time>
      </trkpt>
      <trkpt lat="43.00279" lon="-0.11781">
        <ele>759.1</ele>
        <time>2013-08-20T15:37:34Z</time>
      </trkpt>
      <trkpt lat="43.0028" lon="-0.11778">
        <ele>759.1</ele>
        <time>2013-08-20T15:37:35Z</time>
      </trkpt>
      <trkpt lat="43.0028" lon="-0.11777">
        <ele>757.66</ele>
        <time>2013-08-20T15:37:36Z</time>
      </trkpt>
      <trkpt lat="43.00274" lon="-0.11764">
        <ele>754.77</ele>
        <time>2013-08-20T15:37:40Z</time>
      </trkpt>
      <trkpt lat="43.0026" lon="-0.11752">
        <ele>749</ele>
        <time>2013-08-20T15:37:44Z</time>
      </trkpt>
      <trkpt lat="43.00256" lon="-0.1175">
        <ele>749</ele>
        <time>2013-08-20T15:37:45Z</time>
      </trkpt>
      <trkpt lat="43.00242" lon="-0.11742">
        <ele>745.16</ele>
        <time>2013-08-20T15:37:49Z</time>
      </trkpt>
      <trkpt lat="43.00232" lon="-0.1173">
        <ele>741.79</ele>
        <time>2013-08-20T15:37:53Z</time>
      </trkpt>
      <trkpt lat="43.0022" lon="-0.1172">
        <ele>738.91</ele>
        <time>2013-08-20T15:37:57Z</time>
      </trkpt>
      <trkpt lat="43.00206" lon="-0.11708">
        <ele>737.47</ele>
        <time>2013-08-20T15:38:00Z</time>
      </trkpt>
      <trkpt lat="43.00202" lon="-0.11704">
        <ele>736.99</ele>
        <time>2013-08-20T15:38:01Z</time>
      </trkpt>
      <trkpt lat="43.00183" lon="-0.11691">
        <ele>734.1</ele>
        <time>2013-08-20T15:38:05Z</time>
      </trkpt>
      <trkpt lat="43.00179" lon="-0.11688">
        <ele>733.14</ele>
        <time>2013-08-20T15:38:06Z</time>
      </trkpt>
      <trkpt lat="43.00166" lon="-0.11672">
        <ele>729.78</ele>
        <time>2013-08-20T15:38:11Z</time>
      </trkpt>
      <trkpt lat="43.00163" lon="-0.1167">
        <ele>727.86</ele>
        <time>2013-08-20T15:38:13Z</time>
      </trkpt>
      <trkpt lat="43.00154" lon="-0.11652">
        <ele>725.93</ele>
        <time>2013-08-20T15:38:18Z</time>
      </trkpt>
      <trkpt lat="43.00129" lon="-0.11608">
        <ele>722.57</ele>
        <time>2013-08-20T15:38:24Z</time>
      </trkpt>
      <trkpt lat="43.00098" lon="-0.11582">
        <ele>718.24</ele>
        <time>2013-08-20T15:38:29Z</time>
      </trkpt>
      <trkpt lat="43.00091" lon="-0.1158">
        <ele>717.28</ele>
        <time>2013-08-20T15:38:30Z</time>
      </trkpt>
      <trkpt lat="43.00076" lon="-0.1158">
        <ele>716.32</ele>
        <time>2013-08-20T15:38:32Z</time>
      </trkpt>
      <trkpt lat="43.00065" lon="-0.11583">
        <ele>715.36</ele>
        <time>2013-08-20T15:38:34Z</time>
      </trkpt>
      <trkpt lat="43.00058" lon="-0.11581">
        <ele>713.44</ele>
        <time>2013-08-20T15:38:37Z</time>
      </trkpt>
      <trkpt lat="43.00057" lon="-0.11577">
        <ele>714.4</ele>
        <time>2013-08-20T15:38:38Z</time>
      </trkpt>
      <trkpt lat="43.00057" lon="-0.1156">
        <ele>712.47</ele>
        <time>2013-08-20T15:38:41Z</time>
      </trkpt>
      <trkpt lat="43.00054" lon="-0.11539">
        <ele>709.59</ele>
        <time>2013-08-20T15:38:45Z</time>
      </trkpt>
      <trkpt lat="43.00049" lon="-0.11521">
        <ele>708.15</ele>
        <time>2013-08-20T15:38:48Z</time>
      </trkpt>
      <trkpt lat="43.00047" lon="-0.11509">
        <ele>706.23</ele>
        <time>2013-08-20T15:38:50Z</time>
      </trkpt>
      <trkpt lat="43.00046" lon="-0.11504">
        <ele>706.23</ele>
        <time>2013-08-20T15:38:51Z</time>
      </trkpt>
      <trkpt lat="43.00046" lon="-0.11482">
        <ele>702.38</ele>
        <time>2013-08-20T15:38:55Z</time>
      </trkpt>
      <trkpt lat="43.00049" lon="-0.1147">
        <ele>699.98</ele>
        <time>2013-08-20T15:38:57Z</time>
      </trkpt>
      <trkpt lat="43.00049" lon="-0.11446">
        <ele>695.65</ele>
        <time>2013-08-20T15:39:01Z</time>
      </trkpt>
      <trkpt lat="43.00049" lon="-0.11434">
        <ele>692.77</ele>
        <time>2013-08-20T15:39:03Z</time>
      </trkpt>
      <trkpt lat="43.00043" lon="-0.11406">
        <ele>688.44</ele>
        <time>2013-08-20T15:39:07Z</time>
      </trkpt>
      <trkpt lat="43.00035" lon="-0.1138">
        <ele>685.08</ele>
        <time>2013-08-20T15:39:11Z</time>
      </trkpt>
      <trkpt lat="43.00027" lon="-0.11369">
        <ele>681.23</ele>
        <time>2013-08-20T15:39:14Z</time>
      </trkpt>
      <trkpt lat="43.00023" lon="-0.11364">
        <ele>680.27</ele>
        <time>2013-08-20T15:39:16Z</time>
      </trkpt>
      <trkpt lat="43.00021" lon="-0.11362">
        <ele>679.31</ele>
        <time>2013-08-20T15:39:17Z</time>
      </trkpt>
      <trkpt lat="43.00013" lon="-0.1137">
        <ele>674.98</ele>
        <time>2013-08-20T15:39:23Z</time>
      </trkpt>
      <trkpt lat="43.00011" lon="-0.11374">
        <ele>674.02</ele>
        <time>2013-08-20T15:39:25Z</time>
      </trkpt>
      <trkpt lat="43.0001" lon="-0.11375">
        <ele>673.54</ele>
        <time>2013-08-20T15:39:26Z</time>
      </trkpt>
      <trkpt lat="43" lon="-0.11358">
        <ele>671.14</ele>
        <time>2013-08-20T15:39:32Z</time>
      </trkpt>
      <trkpt lat="42.99993" lon="-0.11342">
        <ele>667.29</ele>
        <time>2013-08-20T15:39:36Z</time>
      </trkpt>
      <trkpt lat="42.9999" lon="-0.11339">
        <ele>665.85</ele>
        <time>2013-08-20T15:39:38Z</time>
      </trkpt>
      <trkpt lat="42.99985" lon="-0.11346">
        <ele>661.52</ele>
        <time>2013-08-20T15:39:46Z</time>
      </trkpt>
      <trkpt lat="42.99984" lon="-0.11347">
        <ele>660.56</ele>
        <time>2013-08-20T15:39:53Z</time>
      </trkpt>
      <trkpt lat="42.99983" lon="-0.11349">
        <ele>660.08</ele>
        <time>2013-08-20T15:39:55Z</time>
      </trkpt>
      <trkpt lat="42.9998" lon="-0.11349">
        <ele>658.16</ele>
        <time>2013-08-20T15:39:58Z</time>
      </trkpt>
      <trkpt lat="42.99979" lon="-0.11349">
        <ele>657.68</ele>
        <time>2013-08-20T15:40:12Z</time>
      </trkpt>
      <trkpt lat="42.99978" lon="-0.11349">
        <ele>657.2</ele>
        <time>2013-08-20T15:40:26Z</time>
      </trkpt>
      <trkpt lat="42.9997" lon="-0.11341">
        <ele>652.87</ele>
        <time>2013-08-20T15:40:32Z</time>
      </trkpt>
      <trkpt lat="42.99965" lon="-0.11324">
        <ele>649.51</ele>
        <time>2013-08-20T15:40:36Z</time>
      </trkpt>
      <trkpt lat="42.99965" lon="-0.11321">
        <ele>649.51</ele>
        <time>2013-08-20T15:40:37Z</time>
      </trkpt>
      <trkpt lat="42.99964" lon="-0.11316">
        <ele>645.66</ele>
        <time>2013-08-20T15:40:39Z</time>
      </trkpt>
      <trkpt lat="42.99963" lon="-0.11312">
        <ele>645.18</ele>
        <time>2013-08-20T15:40:40Z</time>
      </trkpt>
      <trkpt lat="42.99965" lon="-0.1128">
        <ele>641.34</ele>
        <time>2013-08-20T15:40:46Z</time>
      </trkpt>
      <trkpt lat="42.99974" lon="-0.11238">
        <ele>638.45</ele>
        <time>2013-08-20T15:40:51Z</time>
      </trkpt>
      <trkpt lat="42.99977" lon="-0.11208">
        <ele>637.49</ele>
        <time>2013-08-20T15:40:55Z</time>
      </trkpt>
      <trkpt lat="42.99973" lon="-0.11179">
        <ele>636.05</ele>
        <time>2013-08-20T15:41:00Z</time>
      </trkpt>
      <trkpt lat="42.99973" lon="-0.11174">
        <ele>636.05</ele>
        <time>2013-08-20T15:41:01Z</time>
      </trkpt>
      <trkpt lat="42.99974" lon="-0.1117">
        <ele>635.57</ele>
        <time>2013-08-20T15:41:02Z</time>
      </trkpt>
      <trkpt lat="42.99992" lon="-0.11131">
        <ele>631.24</ele>
        <time>2013-08-20T15:41:07Z</time>
      </trkpt>
      <trkpt lat="42.99998" lon="-0.11121">
        <ele>631.24</ele>
        <time>2013-08-20T15:41:08Z</time>
      </trkpt>
      <trkpt lat="43.00014" lon="-0.11096">
        <ele>627.88</ele>
        <time>2013-08-20T15:41:11Z</time>
      </trkpt>
      <trkpt lat="43.00019" lon="-0.11089">
        <ele>626.92</ele>
        <time>2013-08-20T15:41:12Z</time>
      </trkpt>
      <trkpt lat="43.00029" lon="-0.1105">
        <ele>622.59</ele>
        <time>2013-08-20T15:41:17Z</time>
      </trkpt>
      <trkpt lat="43.00027" lon="-0.11026">
        <ele>620.19</ele>
        <time>2013-08-20T15:41:20Z</time>
      </trkpt>
      <trkpt lat="43.0003" lon="-0.11004">
        <ele>617.78</ele>
        <time>2013-08-20T15:41:23Z</time>
      </trkpt>
      <trkpt lat="43.00047" lon="-0.10987">
        <ele>613.94</ele>
        <time>2013-08-20T15:41:27Z</time>
      </trkpt>
      <trkpt lat="43.00066" lon="-0.10977">
        <ele>610.57</ele>
        <time>2013-08-20T15:41:30Z</time>
      </trkpt>
      <trkpt lat="43.00094" lon="-0.10969">
        <ele>605.29</ele>
        <time>2013-08-20T15:41:34Z</time>
      </trkpt>
      <trkpt lat="43.00121" lon="-0.10953">
        <ele>601.44</ele>
        <time>2013-08-20T15:41:38Z</time>
      </trkpt>
      <trkpt lat="43.0013" lon="-0.10937">
        <ele>598.08</ele>
        <time>2013-08-20T15:41:41Z</time>
      </trkpt>
      <trkpt lat="43.00134" lon="-0.10932">
        <ele>597.12</ele>
        <time>2013-08-20T15:41:42Z</time>
      </trkpt>
      <trkpt lat="43.00155" lon="-0.10904">
        <ele>591.35</ele>
        <time>2013-08-20T15:41:47Z</time>
      </trkpt>
      <trkpt lat="43.00164" lon="-0.10887">
        <ele>588.95</ele>
        <time>2013-08-20T15:41:50Z</time>
      </trkpt>
      <trkpt lat="43.00173" lon="-0.10873">
        <ele>586.06</ele>
        <time>2013-08-20T15:41:53Z</time>
      </trkpt>
      <trkpt lat="43.00177" lon="-0.10868">
        <ele>585.1</ele>
        <time>2013-08-20T15:41:54Z</time>
      </trkpt>
      <trkpt lat="43.00203" lon="-0.10839">
        <ele>581.73</ele>
        <time>2013-08-20T15:41:57Z</time>
      </trkpt>
      <trkpt lat="43.0022" lon="-0.10822">
        <ele>580.29</ele>
        <time>2013-08-20T15:41:59Z</time>
      </trkpt>
      <trkpt lat="43.00241" lon="-0.10801">
        <ele>578.37</ele>
        <time>2013-08-20T15:42:02Z</time>
      </trkpt>
      <trkpt lat="43.00271" lon="-0.10767">
        <ele>574.53</ele>
        <time>2013-08-20T15:42:07Z</time>
      </trkpt>
      <trkpt lat="43.00276" lon="-0.1076">
        <ele>573.56</ele>
        <time>2013-08-20T15:42:08Z</time>
      </trkpt>
      <trkpt lat="43.00297" lon="-0.10742">
        <ele>568.76</ele>
        <time>2013-08-20T15:42:13Z</time>
      </trkpt>
      <trkpt lat="43.00304" lon="-0.10735">
        <ele>566.83</ele>
        <time>2013-08-20T15:42:15Z</time>
      </trkpt>
      <trkpt lat="43.00311" lon="-0.10723">
        <ele>565.39</ele>
        <time>2013-08-20T15:42:17Z</time>
      </trkpt>
      <trkpt lat="43.00316" lon="-0.10711">
        <ele>563.47</ele>
        <time>2013-08-20T15:42:19Z</time>
      </trkpt>
      <trkpt lat="43.0032" lon="-0.10697">
        <ele>562.03</ele>
        <time>2013-08-20T15:42:21Z</time>
      </trkpt>
      <trkpt lat="43.00327" lon="-0.1068">
        <ele>559.14</ele>
        <time>2013-08-20T15:42:24Z</time>
      </trkpt>
      <trkpt lat="43.00336" lon="-0.10664">
        <ele>556.74</ele>
        <time>2013-08-20T15:42:27Z</time>
      </trkpt>
      <trkpt lat="43.00358" lon="-0.10647">
        <ele>554.34</ele>
        <time>2013-08-20T15:42:31Z</time>
      </trkpt>
      <trkpt lat="43.00371" lon="-0.1064">
        <ele>553.38</ele>
        <time>2013-08-20T15:42:33Z</time>
      </trkpt>
      <trkpt lat="43.00396" lon="-0.10615">
        <ele>551.45</ele>
        <time>2013-08-20T15:42:38Z</time>
      </trkpt>
      <trkpt lat="43.00406" lon="-0.10598">
        <ele>549.53</ele>
        <time>2013-08-20T15:42:41Z</time>
      </trkpt>
      <trkpt lat="43.00426" lon="-0.10565">
        <ele>547.61</ele>
        <time>2013-08-20T15:42:44Z</time>
      </trkpt>
      <trkpt lat="43.00441" lon="-0.10527">
        <ele>547.13</ele>
        <time>2013-08-20T15:42:51Z</time>
      </trkpt>
      <trkpt lat="43.00478" lon="-0.10496">
        <ele>545.69</ele>
        <time>2013-08-20T15:43:03Z</time>
      </trkpt>
      <trkpt lat="43.00485" lon="-0.10491">
        <ele>545.2</ele>
        <time>2013-08-20T15:43:05Z</time>
      </trkpt>
      <trkpt lat="43.00489" lon="-0.1049">
        <ele>544.72</ele>
        <time>2013-08-20T15:43:06Z</time>
      </trkpt>
      <trkpt lat="43.00494" lon="-0.10488">
        <ele>544.72</ele>
        <time>2013-08-20T15:43:07Z</time>
      </trkpt>
      <trkpt lat="43.00499" lon="-0.10485">
        <ele>544.72</ele>
        <time>2013-08-20T15:43:08Z</time>
      </trkpt>
      <trkpt lat="43.00504" lon="-0.10482">
        <ele>544.72</ele>
        <time>2013-08-20T15:43:09Z</time>
      </trkpt>
      <trkpt lat="43.00517" lon="-0.10474">
        <ele>543.28</ele>
        <time>2013-08-20T15:43:11Z</time>
      </trkpt>
      <trkpt lat="43.00536" lon="-0.10459">
        <ele>540.88</ele>
        <time>2013-08-20T15:43:14Z</time>
      </trkpt>
      <trkpt lat="43.00542" lon="-0.10452">
        <ele>539.92</ele>
        <time>2013-08-20T15:43:15Z</time>
      </trkpt>
      <trkpt lat="43.00548" lon="-0.10434">
        <ele>538.96</ele>
        <time>2013-08-20T15:43:17Z</time>
      </trkpt>
      <trkpt lat="43.00561" lon="-0.10392">
        <ele>533.67</ele>
        <time>2013-08-20T15:43:21Z</time>
      </trkpt>
      <trkpt lat="43.00567" lon="-0.10382">
        <ele>532.23</ele>
        <time>2013-08-20T15:43:22Z</time>
      </trkpt>
      <trkpt lat="43.00575" lon="-0.10374">
        <ele>531.75</ele>
        <time>2013-08-20T15:43:23Z</time>
      </trkpt>
      <trkpt lat="43.00588" lon="-0.10363">
        <ele>528.86</ele>
        <time>2013-08-20T15:43:25Z</time>
      </trkpt>
      <trkpt lat="43.00592" lon="-0.10358">
        <ele>528.38</ele>
        <time>2013-08-20T15:43:26Z</time>
      </trkpt>
      <trkpt lat="43.00596" lon="-0.10346">
        <ele>525.98</ele>
        <time>2013-08-20T15:43:28Z</time>
      </trkpt>
      <trkpt lat="43.006" lon="-0.10339">
        <ele>525.02</ele>
        <time>2013-08-20T15:43:29Z</time>
      </trkpt>
      <trkpt lat="43.00603" lon="-0.10331">
        <ele>524.06</ele>
        <time>2013-08-20T15:43:30Z</time>
      </trkpt>
      <trkpt lat="43.00615" lon="-0.10302">
        <ele>521.17</ele>
        <time>2013-08-20T15:43:33Z</time>
      </trkpt>
      <trkpt lat="43.00622" lon="-0.10296">
        <ele>520.69</ele>
        <time>2013-08-20T15:43:34Z</time>
      </trkpt>
      <trkpt lat="43.00629" lon="-0.10292">
        <ele>521.17</ele>
        <time>2013-08-20T15:43:35Z</time>
      </trkpt>
      <trkpt lat="43.00635" lon="-0.10288">
        <ele>520.21</ele>
        <time>2013-08-20T15:43:36Z</time>
      </trkpt>
      <trkpt lat="43.00641" lon="-0.10282">
        <ele>519.25</ele>
        <time>2013-08-20T15:43:37Z</time>
      </trkpt>
      <trkpt lat="43.00647" lon="-0.10276">
        <ele>518.29</ele>
        <time>2013-08-20T15:43:38Z</time>
      </trkpt>
      <trkpt lat="43.00652" lon="-0.10271">
        <ele>518.29</ele>
        <time>2013-08-20T15:43:39Z</time>
      </trkpt>
      <trkpt lat="43.00657" lon="-0.10265">
        <ele>517.81</ele>
        <time>2013-08-20T15:43:40Z</time>
      </trkpt>
      <trkpt lat="43.00651" lon="-0.10235">
        <ele>516.37</ele>
        <time>2013-08-20T15:43:45Z</time>
      </trkpt>
      <trkpt lat="43.00648" lon="-0.1023">
        <ele>515.88</ele>
        <time>2013-08-20T15:43:46Z</time>
      </trkpt>
      <trkpt lat="43.00632" lon="-0.10205">
        <ele>512.52</ele>
        <time>2013-08-20T15:43:51Z</time>
      </trkpt>
      <trkpt lat="43.0062" lon="-0.10195">
        <ele>510.12</ele>
        <time>2013-08-20T15:43:53Z</time>
      </trkpt>
      <trkpt lat="43.00594" lon="-0.10175">
        <ele>503.87</ele>
        <time>2013-08-20T15:43:58Z</time>
      </trkpt>
      <trkpt lat="43.00588" lon="-0.10172">
        <ele>503.39</ele>
        <time>2013-08-20T15:44:00Z</time>
      </trkpt>
      <trkpt lat="43.00568" lon="-0.10165">
        <ele>501.46</ele>
        <time>2013-08-20T15:44:06Z</time>
      </trkpt>
      <trkpt lat="43.00555" lon="-0.10165">
        <ele>499.54</ele>
        <time>2013-08-20T15:44:08Z</time>
      </trkpt>
      <trkpt lat="43.00545" lon="-0.10165">
        <ele>498.58</ele>
        <time>2013-08-20T15:44:10Z</time>
      </trkpt>
      <trkpt lat="43.00538" lon="-0.10156">
        <ele>496.66</ele>
        <time>2013-08-20T15:44:19Z</time>
      </trkpt>
      <trkpt lat="43.00565" lon="-0.10148">
        <ele>494.74</ele>
        <time>2013-08-20T15:44:25Z</time>
      </trkpt>
      <trkpt lat="43.00568" lon="-0.10144">
        <ele>494.74</ele>
        <time>2013-08-20T15:44:27Z</time>
      </trkpt>
      <trkpt lat="43.0057" lon="-0.10128">
        <ele>494.26</ele>
        <time>2013-08-20T15:44:30Z</time>
      </trkpt>
      <trkpt lat="43.00571" lon="-0.10116">
        <ele>494.26</ele>
        <time>2013-08-20T15:44:32Z</time>
      </trkpt>
      <trkpt lat="43.00597" lon="-0.10119">
        <ele>493.77</ele>
        <time>2013-08-20T15:44:41Z</time>
      </trkpt>
      <trkpt lat="43.006" lon="-0.10121">
        <ele>493.29</ele>
        <time>2013-08-20T15:44:42Z</time>
      </trkpt>
      <trkpt lat="43.00616" lon="-0.10123">
        <ele>493.29</ele>
        <time>2013-08-20T15:44:47Z</time>
      </trkpt>
      <trkpt lat="43.00663" lon="-0.10121">
        <ele>491.37</ele>
        <time>2013-08-20T15:45:00Z</time>
      </trkpt>
      <trkpt lat="43.00677" lon="-0.10117">
        <ele>491.37</ele>
        <time>2013-08-20T15:45:11Z</time>
      </trkpt>
      <trkpt lat="43.00678" lon="-0.10117">
        <ele>490.89</ele>
        <time>2013-08-20T15:45:24Z</time>
      </trkpt>
      <trkpt lat="43.00679" lon="-0.10116">
        <ele>488.01</ele>
        <time>2013-08-20T15:45:27Z</time>
      </trkpt>
      <trkpt lat="43.00679" lon="-0.10116">
        <ele>489.45</ele>
        <time>2013-08-20T15:45:28Z</time>
      </trkpt>
      <trkpt lat="43.00679" lon="-0.10116">
        <ele>494.26</ele>
        <time>2013-08-20T15:45:39Z</time>
      </trkpt>
      <trkpt lat="43.00679" lon="-0.10116">
        <ele>492.81</ele>
        <time>2013-08-20T15:45:40Z</time>
      </trkpt>
      <trkpt lat="43.00679" lon="-0.10115">
        <ele>488.49</ele>
        <time>2013-08-20T15:45:51Z</time>
      </trkpt>
      <trkpt lat="43.00679" lon="-0.10115">
        <ele>491.85</ele>
        <time>2013-08-20T15:45:53Z</time>
      </trkpt>
      <trkpt lat="43.00678" lon="-0.10117">
        <ele>491.37</ele>
        <time>2013-08-20T15:46:17Z</time>
      </trkpt>
    </trkseg>
  </trk>
</gpx>